<?xml version="1.0" encoding="UTF-8" standalone="no" ?>
<gpx xmlns="http://www.topografix.com/GPX/1/1" xmlns:xsi="http://www.w3.org/2001/XMLSchema-instance" xsi:schemaLocation="http://www.topografix.com/GPX/1/1 http://www.topografix.com/GPX/1/1/gpx.xsd" version="1.1" creator="VisuGPX - https://www.visugpx.com">
  <metadata>
    <name>Sortie Moto</name>
  </metadata>
  <trk>
    <name><![CDATA[Journal actif: 2020-05-09 10:16]]></name>
    <trkseg>
      <trkpt lat="46.00183" lon="6.19979">
        <ele>576.45</ele>
        <time>2020-05-09T08:16:27Z</time>
      </trkpt>
      <trkpt lat="46.00178" lon="6.19995">
        <ele>574.04</ele>
        <time>2020-05-09T08:16:35Z</time>
      </trkpt>
      <trkpt lat="46.00191" lon="6.20028">
        <ele>572.6</ele>
        <time>2020-05-09T08:16:41Z</time>
      </trkpt>
      <trkpt lat="46.0019" lon="6.2003">
        <ele>569.72</ele>
        <time>2020-05-09T08:16:47Z</time>
      </trkpt>
      <trkpt lat="46.00192" lon="6.20026">
        <ele>569.72</ele>
        <time>2020-05-09T08:16:48Z</time>
      </trkpt>
      <trkpt lat="46.00195" lon="6.20018">
        <ele>569.72</ele>
        <time>2020-05-09T08:16:49Z</time>
      </trkpt>
      <trkpt lat="46.00199" lon="6.20007">
        <ele>569.24</ele>
        <time>2020-05-09T08:16:50Z</time>
      </trkpt>
      <trkpt lat="46.00204" lon="6.19994">
        <ele>569.24</ele>
        <time>2020-05-09T08:16:51Z</time>
      </trkpt>
      <trkpt lat="46.00247" lon="6.19879">
        <ele>575.01</ele>
        <time>2020-05-09T08:16:57Z</time>
      </trkpt>
      <trkpt lat="46.00273" lon="6.19808">
        <ele>575.49</ele>
        <time>2020-05-09T08:17:00Z</time>
      </trkpt>
      <trkpt lat="46.0028" lon="6.19781">
        <ele>575.01</ele>
        <time>2020-05-09T08:17:01Z</time>
      </trkpt>
      <trkpt lat="46.00282" lon="6.19755">
        <ele>574.04</ele>
        <time>2020-05-09T08:17:02Z</time>
      </trkpt>
      <trkpt lat="46.00285" lon="6.1973">
        <ele>573.56</ele>
        <time>2020-05-09T08:17:03Z</time>
      </trkpt>
      <trkpt lat="46.00287" lon="6.19704">
        <ele>573.08</ele>
        <time>2020-05-09T08:17:04Z</time>
      </trkpt>
      <trkpt lat="46.00287" lon="6.19653">
        <ele>572.6</ele>
        <time>2020-05-09T08:17:06Z</time>
      </trkpt>
      <trkpt lat="46.00295" lon="6.19481">
        <ele>572.12</ele>
        <time>2020-05-09T08:17:11Z</time>
      </trkpt>
      <trkpt lat="46.00341" lon="6.19238">
        <ele>577.89</ele>
        <time>2020-05-09T08:17:17Z</time>
      </trkpt>
      <trkpt lat="46.00375" lon="6.19071">
        <ele>575.49</ele>
        <time>2020-05-09T08:17:23Z</time>
      </trkpt>
      <trkpt lat="46.00398" lon="6.18968">
        <ele>562.99</ele>
        <time>2020-05-09T08:17:29Z</time>
      </trkpt>
      <trkpt lat="46.004" lon="6.1896">
        <ele>562.51</ele>
        <time>2020-05-09T08:17:30Z</time>
      </trkpt>
      <trkpt lat="46.00401" lon="6.18955">
        <ele>561.55</ele>
        <time>2020-05-09T08:17:31Z</time>
      </trkpt>
      <trkpt lat="46.00398" lon="6.18954">
        <ele>561.07</ele>
        <time>2020-05-09T08:17:32Z</time>
      </trkpt>
      <trkpt lat="46.00392" lon="6.1895">
        <ele>561.07</ele>
        <time>2020-05-09T08:17:33Z</time>
      </trkpt>
      <trkpt lat="46.00385" lon="6.18946">
        <ele>561.07</ele>
        <time>2020-05-09T08:17:34Z</time>
      </trkpt>
      <trkpt lat="46.00377" lon="6.1894">
        <ele>561.07</ele>
        <time>2020-05-09T08:17:35Z</time>
      </trkpt>
      <trkpt lat="46.0037" lon="6.18933">
        <ele>561.07</ele>
        <time>2020-05-09T08:17:36Z</time>
      </trkpt>
      <trkpt lat="46.00361" lon="6.18923">
        <ele>561.07</ele>
        <time>2020-05-09T08:17:37Z</time>
      </trkpt>
      <trkpt lat="46.00358" lon="6.18906">
        <ele>561.07</ele>
        <time>2020-05-09T08:17:38Z</time>
      </trkpt>
      <trkpt lat="46.0036" lon="6.18894">
        <ele>561.07</ele>
        <time>2020-05-09T08:17:39Z</time>
      </trkpt>
      <trkpt lat="46.00369" lon="6.18883">
        <ele>560.59</ele>
        <time>2020-05-09T08:17:40Z</time>
      </trkpt>
      <trkpt lat="46.00376" lon="6.18879">
        <ele>560.59</ele>
        <time>2020-05-09T08:17:41Z</time>
      </trkpt>
      <trkpt lat="46.00384" lon="6.18877">
        <ele>560.59</ele>
        <time>2020-05-09T08:17:42Z</time>
      </trkpt>
      <trkpt lat="46.00392" lon="6.18881">
        <ele>560.59</ele>
        <time>2020-05-09T08:17:43Z</time>
      </trkpt>
      <trkpt lat="46.00403" lon="6.18887">
        <ele>561.07</ele>
        <time>2020-05-09T08:17:44Z</time>
      </trkpt>
      <trkpt lat="46.0042" lon="6.18895">
        <ele>561.55</ele>
        <time>2020-05-09T08:17:45Z</time>
      </trkpt>
      <trkpt lat="46.00431" lon="6.18905">
        <ele>562.51</ele>
        <time>2020-05-09T08:17:46Z</time>
      </trkpt>
      <trkpt lat="46.00447" lon="6.18925">
        <ele>563.47</ele>
        <time>2020-05-09T08:17:47Z</time>
      </trkpt>
      <trkpt lat="46.00483" lon="6.18972">
        <ele>565.39</ele>
        <time>2020-05-09T08:17:49Z</time>
      </trkpt>
      <trkpt lat="46.00499" lon="6.18999">
        <ele>566.35</ele>
        <time>2020-05-09T08:17:50Z</time>
      </trkpt>
      <trkpt lat="46.00564" lon="6.19146">
        <ele>573.56</ele>
        <time>2020-05-09T08:17:56Z</time>
      </trkpt>
      <trkpt lat="46.00584" lon="6.19199">
        <ele>575.97</ele>
        <time>2020-05-09T08:17:58Z</time>
      </trkpt>
      <trkpt lat="46.00649" lon="6.19386">
        <ele>586.54</ele>
        <time>2020-05-09T08:18:04Z</time>
      </trkpt>
      <trkpt lat="46.00686" lon="6.19484">
        <ele>594.71</ele>
        <time>2020-05-09T08:18:09Z</time>
      </trkpt>
      <trkpt lat="46.00692" lon="6.19497">
        <ele>596.15</ele>
        <time>2020-05-09T08:18:10Z</time>
      </trkpt>
      <trkpt lat="46.00694" lon="6.1951">
        <ele>597.12</ele>
        <time>2020-05-09T08:18:11Z</time>
      </trkpt>
      <trkpt lat="46.00693" lon="6.19521">
        <ele>598.08</ele>
        <time>2020-05-09T08:18:12Z</time>
      </trkpt>
      <trkpt lat="46.00691" lon="6.19533">
        <ele>599.04</ele>
        <time>2020-05-09T08:18:13Z</time>
      </trkpt>
      <trkpt lat="46.00683" lon="6.19541">
        <ele>600</ele>
        <time>2020-05-09T08:18:14Z</time>
      </trkpt>
      <trkpt lat="46.00673" lon="6.19537">
        <ele>600.96</ele>
        <time>2020-05-09T08:18:15Z</time>
      </trkpt>
      <trkpt lat="46.00663" lon="6.19527">
        <ele>601.92</ele>
        <time>2020-05-09T08:18:16Z</time>
      </trkpt>
      <trkpt lat="46.00657" lon="6.19514">
        <ele>602.4</ele>
        <time>2020-05-09T08:18:17Z</time>
      </trkpt>
      <trkpt lat="46.0065" lon="6.19497">
        <ele>602.88</ele>
        <time>2020-05-09T08:18:18Z</time>
      </trkpt>
      <trkpt lat="46.00641" lon="6.19478">
        <ele>603.36</ele>
        <time>2020-05-09T08:18:19Z</time>
      </trkpt>
      <trkpt lat="46.00605" lon="6.19403">
        <ele>605.29</ele>
        <time>2020-05-09T08:18:22Z</time>
      </trkpt>
      <trkpt lat="46.00554" lon="6.19325">
        <ele>608.65</ele>
        <time>2020-05-09T08:18:26Z</time>
      </trkpt>
      <trkpt lat="46.00541" lon="6.19315">
        <ele>609.61</ele>
        <time>2020-05-09T08:18:27Z</time>
      </trkpt>
      <trkpt lat="46.00529" lon="6.19309">
        <ele>611.06</ele>
        <time>2020-05-09T08:18:28Z</time>
      </trkpt>
      <trkpt lat="46.00517" lon="6.19308">
        <ele>612.5</ele>
        <time>2020-05-09T08:18:29Z</time>
      </trkpt>
      <trkpt lat="46.00506" lon="6.19315">
        <ele>613.94</ele>
        <time>2020-05-09T08:18:30Z</time>
      </trkpt>
      <trkpt lat="46.00496" lon="6.19323">
        <ele>614.9</ele>
        <time>2020-05-09T08:18:31Z</time>
      </trkpt>
      <trkpt lat="46.00489" lon="6.19338">
        <ele>615.86</ele>
        <time>2020-05-09T08:18:32Z</time>
      </trkpt>
      <trkpt lat="46.00481" lon="6.19354">
        <ele>616.82</ele>
        <time>2020-05-09T08:18:33Z</time>
      </trkpt>
      <trkpt lat="46.0048" lon="6.19372">
        <ele>617.78</ele>
        <time>2020-05-09T08:18:34Z</time>
      </trkpt>
      <trkpt lat="46.00483" lon="6.1939">
        <ele>618.75</ele>
        <time>2020-05-09T08:18:35Z</time>
      </trkpt>
      <trkpt lat="46.0049" lon="6.19408">
        <ele>619.71</ele>
        <time>2020-05-09T08:18:36Z</time>
      </trkpt>
      <trkpt lat="46.00498" lon="6.19427">
        <ele>620.67</ele>
        <time>2020-05-09T08:18:37Z</time>
      </trkpt>
      <trkpt lat="46.00509" lon="6.19446">
        <ele>621.15</ele>
        <time>2020-05-09T08:18:38Z</time>
      </trkpt>
      <trkpt lat="46.00522" lon="6.19467">
        <ele>621.63</ele>
        <time>2020-05-09T08:18:39Z</time>
      </trkpt>
      <trkpt lat="46.00537" lon="6.19484">
        <ele>622.59</ele>
        <time>2020-05-09T08:18:40Z</time>
      </trkpt>
      <trkpt lat="46.00556" lon="6.19501">
        <ele>623.55</ele>
        <time>2020-05-09T08:18:41Z</time>
      </trkpt>
      <trkpt lat="46.00574" lon="6.19517">
        <ele>624.99</ele>
        <time>2020-05-09T08:18:42Z</time>
      </trkpt>
      <trkpt lat="46.00591" lon="6.19539">
        <ele>625.96</ele>
        <time>2020-05-09T08:18:43Z</time>
      </trkpt>
      <trkpt lat="46.00608" lon="6.19561">
        <ele>626.92</ele>
        <time>2020-05-09T08:18:44Z</time>
      </trkpt>
      <trkpt lat="46.00619" lon="6.19589">
        <ele>628.36</ele>
        <time>2020-05-09T08:18:45Z</time>
      </trkpt>
      <trkpt lat="46.0063" lon="6.19618">
        <ele>629.32</ele>
        <time>2020-05-09T08:18:46Z</time>
      </trkpt>
      <trkpt lat="46.00712" lon="6.19876">
        <ele>637.97</ele>
        <time>2020-05-09T08:18:54Z</time>
      </trkpt>
      <trkpt lat="46.00791" lon="6.20221">
        <ele>651.91</ele>
        <time>2020-05-09T08:19:05Z</time>
      </trkpt>
      <trkpt lat="46.00857" lon="6.20463">
        <ele>660.08</ele>
        <time>2020-05-09T08:19:14Z</time>
      </trkpt>
      <trkpt lat="46.00873" lon="6.20506">
        <ele>661.04</ele>
        <time>2020-05-09T08:19:16Z</time>
      </trkpt>
      <trkpt lat="46.00881" lon="6.20528">
        <ele>661.52</ele>
        <time>2020-05-09T08:19:17Z</time>
      </trkpt>
      <trkpt lat="46.00892" lon="6.20546">
        <ele>661.52</ele>
        <time>2020-05-09T08:19:18Z</time>
      </trkpt>
      <trkpt lat="46.00905" lon="6.20565">
        <ele>662.01</ele>
        <time>2020-05-09T08:19:19Z</time>
      </trkpt>
      <trkpt lat="46.00919" lon="6.20582">
        <ele>662.49</ele>
        <time>2020-05-09T08:19:20Z</time>
      </trkpt>
      <trkpt lat="46.0104" lon="6.20726">
        <ele>664.41</ele>
        <time>2020-05-09T08:19:27Z</time>
      </trkpt>
      <trkpt lat="46.01266" lon="6.20998">
        <ele>670.18</ele>
        <time>2020-05-09T08:19:38Z</time>
      </trkpt>
      <trkpt lat="46.0141" lon="6.21205">
        <ele>675.46</ele>
        <time>2020-05-09T08:19:46Z</time>
      </trkpt>
      <trkpt lat="46.01448" lon="6.21252">
        <ele>676.91</ele>
        <time>2020-05-09T08:19:48Z</time>
      </trkpt>
      <trkpt lat="46.01468" lon="6.21273">
        <ele>677.39</ele>
        <time>2020-05-09T08:19:49Z</time>
      </trkpt>
      <trkpt lat="46.01488" lon="6.21296">
        <ele>678.35</ele>
        <time>2020-05-09T08:19:50Z</time>
      </trkpt>
      <trkpt lat="46.01508" lon="6.21318">
        <ele>679.79</ele>
        <time>2020-05-09T08:19:51Z</time>
      </trkpt>
      <trkpt lat="46.0153" lon="6.21338">
        <ele>680.75</ele>
        <time>2020-05-09T08:19:52Z</time>
      </trkpt>
      <trkpt lat="46.01721" lon="6.2156">
        <ele>687.96</ele>
        <time>2020-05-09T08:20:02Z</time>
      </trkpt>
      <trkpt lat="46.01803" lon="6.21759">
        <ele>687</ele>
        <time>2020-05-09T08:20:08Z</time>
      </trkpt>
      <trkpt lat="46.01909" lon="6.22068">
        <ele>689.4</ele>
        <time>2020-05-09T08:20:16Z</time>
      </trkpt>
      <trkpt lat="46.01961" lon="6.22362">
        <ele>693.73</ele>
        <time>2020-05-09T08:20:23Z</time>
      </trkpt>
      <trkpt lat="46.02026" lon="6.22807">
        <ele>703.82</ele>
        <time>2020-05-09T08:20:34Z</time>
      </trkpt>
      <trkpt lat="46.02051" lon="6.2294">
        <ele>706.23</ele>
        <time>2020-05-09T08:20:38Z</time>
      </trkpt>
      <trkpt lat="46.0206" lon="6.22968">
        <ele>706.71</ele>
        <time>2020-05-09T08:20:39Z</time>
      </trkpt>
      <trkpt lat="46.02071" lon="6.22994">
        <ele>706.71</ele>
        <time>2020-05-09T08:20:40Z</time>
      </trkpt>
      <trkpt lat="46.02084" lon="6.23018">
        <ele>707.19</ele>
        <time>2020-05-09T08:20:41Z</time>
      </trkpt>
      <trkpt lat="46.02099" lon="6.23038">
        <ele>707.19</ele>
        <time>2020-05-09T08:20:42Z</time>
      </trkpt>
      <trkpt lat="46.02115" lon="6.23057">
        <ele>707.67</ele>
        <time>2020-05-09T08:20:43Z</time>
      </trkpt>
      <trkpt lat="46.02129" lon="6.23075">
        <ele>707.67</ele>
        <time>2020-05-09T08:20:44Z</time>
      </trkpt>
      <trkpt lat="46.02142" lon="6.23094">
        <ele>707.67</ele>
        <time>2020-05-09T08:20:45Z</time>
      </trkpt>
      <trkpt lat="46.02154" lon="6.23111">
        <ele>708.15</ele>
        <time>2020-05-09T08:20:46Z</time>
      </trkpt>
      <trkpt lat="46.02164" lon="6.23129">
        <ele>708.63</ele>
        <time>2020-05-09T08:20:47Z</time>
      </trkpt>
      <trkpt lat="46.02226" lon="6.23252">
        <ele>711.03</ele>
        <time>2020-05-09T08:20:54Z</time>
      </trkpt>
      <trkpt lat="46.02279" lon="6.23359">
        <ele>714.4</ele>
        <time>2020-05-09T08:21:00Z</time>
      </trkpt>
      <trkpt lat="46.02289" lon="6.23375">
        <ele>714.88</ele>
        <time>2020-05-09T08:21:01Z</time>
      </trkpt>
      <trkpt lat="46.02302" lon="6.23387">
        <ele>715.36</ele>
        <time>2020-05-09T08:21:02Z</time>
      </trkpt>
      <trkpt lat="46.02315" lon="6.234">
        <ele>715.84</ele>
        <time>2020-05-09T08:21:03Z</time>
      </trkpt>
      <trkpt lat="46.0233" lon="6.23413">
        <ele>716.32</ele>
        <time>2020-05-09T08:21:04Z</time>
      </trkpt>
      <trkpt lat="46.02394" lon="6.23471">
        <ele>720.16</ele>
        <time>2020-05-09T08:21:08Z</time>
      </trkpt>
      <trkpt lat="46.0241" lon="6.23491">
        <ele>721.61</ele>
        <time>2020-05-09T08:21:09Z</time>
      </trkpt>
      <trkpt lat="46.02425" lon="6.23515">
        <ele>722.57</ele>
        <time>2020-05-09T08:21:10Z</time>
      </trkpt>
      <trkpt lat="46.02437" lon="6.23541">
        <ele>723.53</ele>
        <time>2020-05-09T08:21:11Z</time>
      </trkpt>
      <trkpt lat="46.02449" lon="6.23568">
        <ele>725.45</ele>
        <time>2020-05-09T08:21:12Z</time>
      </trkpt>
      <trkpt lat="46.02476" lon="6.23622">
        <ele>727.86</ele>
        <time>2020-05-09T08:21:14Z</time>
      </trkpt>
      <trkpt lat="46.02506" lon="6.23672">
        <ele>729.78</ele>
        <time>2020-05-09T08:21:16Z</time>
      </trkpt>
      <trkpt lat="46.02523" lon="6.23694">
        <ele>730.74</ele>
        <time>2020-05-09T08:21:17Z</time>
      </trkpt>
      <trkpt lat="46.02541" lon="6.23713">
        <ele>731.22</ele>
        <time>2020-05-09T08:21:18Z</time>
      </trkpt>
      <trkpt lat="46.02561" lon="6.23728">
        <ele>732.18</ele>
        <time>2020-05-09T08:21:19Z</time>
      </trkpt>
      <trkpt lat="46.02582" lon="6.23739">
        <ele>732.66</ele>
        <time>2020-05-09T08:21:20Z</time>
      </trkpt>
      <trkpt lat="46.02604" lon="6.2375">
        <ele>733.62</ele>
        <time>2020-05-09T08:21:21Z</time>
      </trkpt>
      <trkpt lat="46.02628" lon="6.23756">
        <ele>734.1</ele>
        <time>2020-05-09T08:21:22Z</time>
      </trkpt>
      <trkpt lat="46.02653" lon="6.23761">
        <ele>735.07</ele>
        <time>2020-05-09T08:21:23Z</time>
      </trkpt>
      <trkpt lat="46.02895" lon="6.23814">
        <ele>746.12</ele>
        <time>2020-05-09T08:21:32Z</time>
      </trkpt>
      <trkpt lat="46.03044" lon="6.23895">
        <ele>750.45</ele>
        <time>2020-05-09T08:21:38Z</time>
      </trkpt>
      <trkpt lat="46.03065" lon="6.23918">
        <ele>750.45</ele>
        <time>2020-05-09T08:21:39Z</time>
      </trkpt>
      <trkpt lat="46.03247" lon="6.2413">
        <ele>754.77</ele>
        <time>2020-05-09T08:21:48Z</time>
      </trkpt>
      <trkpt lat="46.03325" lon="6.24245">
        <ele>757.18</ele>
        <time>2020-05-09T08:21:54Z</time>
      </trkpt>
      <trkpt lat="46.03341" lon="6.24257">
        <ele>757.18</ele>
        <time>2020-05-09T08:21:55Z</time>
      </trkpt>
      <trkpt lat="46.03358" lon="6.24266">
        <ele>757.66</ele>
        <time>2020-05-09T08:21:56Z</time>
      </trkpt>
      <trkpt lat="46.03376" lon="6.24272">
        <ele>757.66</ele>
        <time>2020-05-09T08:21:57Z</time>
      </trkpt>
      <trkpt lat="46.03394" lon="6.24269">
        <ele>758.62</ele>
        <time>2020-05-09T08:21:58Z</time>
      </trkpt>
      <trkpt lat="46.03411" lon="6.24266">
        <ele>758.62</ele>
        <time>2020-05-09T08:21:59Z</time>
      </trkpt>
      <trkpt lat="46.03428" lon="6.24255">
        <ele>759.1</ele>
        <time>2020-05-09T08:22:00Z</time>
      </trkpt>
      <trkpt lat="46.03441" lon="6.24247">
        <ele>759.58</ele>
        <time>2020-05-09T08:22:01Z</time>
      </trkpt>
      <trkpt lat="46.03456" lon="6.24224">
        <ele>760.06</ele>
        <time>2020-05-09T08:22:02Z</time>
      </trkpt>
      <trkpt lat="46.03468" lon="6.24204">
        <ele>761.02</ele>
        <time>2020-05-09T08:22:03Z</time>
      </trkpt>
      <trkpt lat="46.03482" lon="6.24183">
        <ele>761.98</ele>
        <time>2020-05-09T08:22:04Z</time>
      </trkpt>
      <trkpt lat="46.03521" lon="6.24118">
        <ele>764.87</ele>
        <time>2020-05-09T08:22:07Z</time>
      </trkpt>
      <trkpt lat="46.03535" lon="6.241">
        <ele>765.83</ele>
        <time>2020-05-09T08:22:08Z</time>
      </trkpt>
      <trkpt lat="46.03551" lon="6.24087">
        <ele>766.31</ele>
        <time>2020-05-09T08:22:09Z</time>
      </trkpt>
      <trkpt lat="46.03569" lon="6.24079">
        <ele>766.79</ele>
        <time>2020-05-09T08:22:10Z</time>
      </trkpt>
      <trkpt lat="46.03589" lon="6.24072">
        <ele>767.27</ele>
        <time>2020-05-09T08:22:11Z</time>
      </trkpt>
      <trkpt lat="46.03609" lon="6.24072">
        <ele>767.75</ele>
        <time>2020-05-09T08:22:12Z</time>
      </trkpt>
      <trkpt lat="46.03629" lon="6.24074">
        <ele>768.23</ele>
        <time>2020-05-09T08:22:13Z</time>
      </trkpt>
      <trkpt lat="46.0365" lon="6.24081">
        <ele>769.19</ele>
        <time>2020-05-09T08:22:14Z</time>
      </trkpt>
      <trkpt lat="46.0367" lon="6.24093">
        <ele>769.67</ele>
        <time>2020-05-09T08:22:15Z</time>
      </trkpt>
      <trkpt lat="46.03688" lon="6.24111">
        <ele>770.63</ele>
        <time>2020-05-09T08:22:16Z</time>
      </trkpt>
      <trkpt lat="46.03707" lon="6.2413">
        <ele>772.08</ele>
        <time>2020-05-09T08:22:17Z</time>
      </trkpt>
      <trkpt lat="46.03724" lon="6.24155">
        <ele>773.04</ele>
        <time>2020-05-09T08:22:18Z</time>
      </trkpt>
      <trkpt lat="46.03742" lon="6.24182">
        <ele>774</ele>
        <time>2020-05-09T08:22:19Z</time>
      </trkpt>
      <trkpt lat="46.03761" lon="6.2421">
        <ele>775.92</ele>
        <time>2020-05-09T08:22:20Z</time>
      </trkpt>
      <trkpt lat="46.03773" lon="6.24245">
        <ele>777.84</ele>
        <time>2020-05-09T08:22:21Z</time>
      </trkpt>
      <trkpt lat="46.03786" lon="6.2428">
        <ele>779.77</ele>
        <time>2020-05-09T08:22:22Z</time>
      </trkpt>
      <trkpt lat="46.03796" lon="6.24318">
        <ele>781.21</ele>
        <time>2020-05-09T08:22:23Z</time>
      </trkpt>
      <trkpt lat="46.03804" lon="6.24358">
        <ele>783.13</ele>
        <time>2020-05-09T08:22:24Z</time>
      </trkpt>
      <trkpt lat="46.03812" lon="6.24398">
        <ele>785.05</ele>
        <time>2020-05-09T08:22:25Z</time>
      </trkpt>
      <trkpt lat="46.03847" lon="6.24543">
        <ele>792.26</ele>
        <time>2020-05-09T08:22:29Z</time>
      </trkpt>
      <trkpt lat="46.03859" lon="6.24574">
        <ele>793.71</ele>
        <time>2020-05-09T08:22:30Z</time>
      </trkpt>
      <trkpt lat="46.03875" lon="6.24602">
        <ele>795.15</ele>
        <time>2020-05-09T08:22:31Z</time>
      </trkpt>
      <trkpt lat="46.03892" lon="6.24628">
        <ele>796.11</ele>
        <time>2020-05-09T08:22:32Z</time>
      </trkpt>
      <trkpt lat="46.03912" lon="6.24649">
        <ele>797.55</ele>
        <time>2020-05-09T08:22:33Z</time>
      </trkpt>
      <trkpt lat="46.03933" lon="6.2467">
        <ele>798.51</ele>
        <time>2020-05-09T08:22:34Z</time>
      </trkpt>
      <trkpt lat="46.03955" lon="6.24685">
        <ele>798.99</ele>
        <time>2020-05-09T08:22:35Z</time>
      </trkpt>
      <trkpt lat="46.03979" lon="6.24699">
        <ele>799.47</ele>
        <time>2020-05-09T08:22:36Z</time>
      </trkpt>
      <trkpt lat="46.04004" lon="6.24707">
        <ele>799.47</ele>
        <time>2020-05-09T08:22:37Z</time>
      </trkpt>
      <trkpt lat="46.0403" lon="6.24713">
        <ele>799.47</ele>
        <time>2020-05-09T08:22:38Z</time>
      </trkpt>
      <trkpt lat="46.04081" lon="6.24734">
        <ele>798.51</ele>
        <time>2020-05-09T08:22:40Z</time>
      </trkpt>
      <trkpt lat="46.04105" lon="6.24749">
        <ele>798.03</ele>
        <time>2020-05-09T08:22:41Z</time>
      </trkpt>
      <trkpt lat="46.04128" lon="6.2477">
        <ele>797.07</ele>
        <time>2020-05-09T08:22:42Z</time>
      </trkpt>
      <trkpt lat="46.0415" lon="6.24795">
        <ele>795.63</ele>
        <time>2020-05-09T08:22:43Z</time>
      </trkpt>
      <trkpt lat="46.04172" lon="6.24821">
        <ele>794.19</ele>
        <time>2020-05-09T08:22:44Z</time>
      </trkpt>
      <trkpt lat="46.04193" lon="6.2485">
        <ele>793.22</ele>
        <time>2020-05-09T08:22:45Z</time>
      </trkpt>
      <trkpt lat="46.04335" lon="6.25064">
        <ele>794.67</ele>
        <time>2020-05-09T08:22:53Z</time>
      </trkpt>
      <trkpt lat="46.04349" lon="6.25092">
        <ele>795.63</ele>
        <time>2020-05-09T08:22:54Z</time>
      </trkpt>
      <trkpt lat="46.04359" lon="6.25122">
        <ele>797.55</ele>
        <time>2020-05-09T08:22:55Z</time>
      </trkpt>
      <trkpt lat="46.04369" lon="6.25152">
        <ele>798.51</ele>
        <time>2020-05-09T08:22:56Z</time>
      </trkpt>
      <trkpt lat="46.04377" lon="6.25182">
        <ele>799.95</ele>
        <time>2020-05-09T08:22:57Z</time>
      </trkpt>
      <trkpt lat="46.04383" lon="6.25214">
        <ele>800.92</ele>
        <time>2020-05-09T08:22:58Z</time>
      </trkpt>
      <trkpt lat="46.04442" lon="6.25463">
        <ele>807.16</ele>
        <time>2020-05-09T08:23:05Z</time>
      </trkpt>
      <trkpt lat="46.04465" lon="6.25531">
        <ele>808.13</ele>
        <time>2020-05-09T08:23:07Z</time>
      </trkpt>
      <trkpt lat="46.04588" lon="6.2579">
        <ele>806.68</ele>
        <time>2020-05-09T08:23:16Z</time>
      </trkpt>
      <trkpt lat="46.04769" lon="6.26165">
        <ele>800.92</ele>
        <time>2020-05-09T08:23:29Z</time>
      </trkpt>
      <trkpt lat="46.04912" lon="6.26411">
        <ele>790.34</ele>
        <time>2020-05-09T08:23:38Z</time>
      </trkpt>
      <trkpt lat="46.05042" lon="6.26526">
        <ele>782.65</ele>
        <time>2020-05-09T08:23:44Z</time>
      </trkpt>
      <trkpt lat="46.0508" lon="6.26576">
        <ele>780.25</ele>
        <time>2020-05-09T08:23:46Z</time>
      </trkpt>
      <trkpt lat="46.05096" lon="6.26605">
        <ele>778.81</ele>
        <time>2020-05-09T08:23:47Z</time>
      </trkpt>
      <trkpt lat="46.05111" lon="6.26637">
        <ele>777.36</ele>
        <time>2020-05-09T08:23:48Z</time>
      </trkpt>
      <trkpt lat="46.05122" lon="6.26671">
        <ele>775.92</ele>
        <time>2020-05-09T08:23:49Z</time>
      </trkpt>
      <trkpt lat="46.05132" lon="6.26706">
        <ele>774.96</ele>
        <time>2020-05-09T08:23:50Z</time>
      </trkpt>
      <trkpt lat="46.05141" lon="6.26742">
        <ele>774</ele>
        <time>2020-05-09T08:23:51Z</time>
      </trkpt>
      <trkpt lat="46.05145" lon="6.2678">
        <ele>773.52</ele>
        <time>2020-05-09T08:23:52Z</time>
      </trkpt>
      <trkpt lat="46.05149" lon="6.26818">
        <ele>773.04</ele>
        <time>2020-05-09T08:23:53Z</time>
      </trkpt>
      <trkpt lat="46.05148" lon="6.26856">
        <ele>772.56</ele>
        <time>2020-05-09T08:23:54Z</time>
      </trkpt>
      <trkpt lat="46.05146" lon="6.26894">
        <ele>772.08</ele>
        <time>2020-05-09T08:23:55Z</time>
      </trkpt>
      <trkpt lat="46.05142" lon="6.26932">
        <ele>772.08</ele>
        <time>2020-05-09T08:23:56Z</time>
      </trkpt>
      <trkpt lat="46.05125" lon="6.27169">
        <ele>769.19</ele>
        <time>2020-05-09T08:24:03Z</time>
      </trkpt>
      <trkpt lat="46.05134" lon="6.27383">
        <ele>763.9</ele>
        <time>2020-05-09T08:24:09Z</time>
      </trkpt>
      <trkpt lat="46.05188" lon="6.2765">
        <ele>757.18</ele>
        <time>2020-05-09T08:24:16Z</time>
      </trkpt>
      <trkpt lat="46.05302" lon="6.2799">
        <ele>753.33</ele>
        <time>2020-05-09T08:24:25Z</time>
      </trkpt>
      <trkpt lat="46.05471" lon="6.2847">
        <ele>744.68</ele>
        <time>2020-05-09T08:24:38Z</time>
      </trkpt>
      <trkpt lat="46.056" lon="6.28831">
        <ele>735.55</ele>
        <time>2020-05-09T08:24:48Z</time>
      </trkpt>
      <trkpt lat="46.05615" lon="6.28862">
        <ele>734.1</ele>
        <time>2020-05-09T08:24:49Z</time>
      </trkpt>
      <trkpt lat="46.05633" lon="6.28891">
        <ele>733.14</ele>
        <time>2020-05-09T08:24:50Z</time>
      </trkpt>
      <trkpt lat="46.05651" lon="6.2892">
        <ele>731.7</ele>
        <time>2020-05-09T08:24:51Z</time>
      </trkpt>
      <trkpt lat="46.05672" lon="6.28943">
        <ele>730.26</ele>
        <time>2020-05-09T08:24:52Z</time>
      </trkpt>
      <trkpt lat="46.05695" lon="6.28962">
        <ele>728.82</ele>
        <time>2020-05-09T08:24:53Z</time>
      </trkpt>
      <trkpt lat="46.05719" lon="6.28978">
        <ele>727.86</ele>
        <time>2020-05-09T08:24:54Z</time>
      </trkpt>
      <trkpt lat="46.05745" lon="6.28992">
        <ele>726.41</ele>
        <time>2020-05-09T08:24:55Z</time>
      </trkpt>
      <trkpt lat="46.05771" lon="6.29001">
        <ele>724.97</ele>
        <time>2020-05-09T08:24:56Z</time>
      </trkpt>
      <trkpt lat="46.05799" lon="6.29007">
        <ele>723.53</ele>
        <time>2020-05-09T08:24:57Z</time>
      </trkpt>
      <trkpt lat="46.05827" lon="6.29009">
        <ele>722.09</ele>
        <time>2020-05-09T08:24:58Z</time>
      </trkpt>
      <trkpt lat="46.05855" lon="6.29006">
        <ele>720.16</ele>
        <time>2020-05-09T08:24:59Z</time>
      </trkpt>
      <trkpt lat="46.05884" lon="6.29002">
        <ele>718.72</ele>
        <time>2020-05-09T08:25:00Z</time>
      </trkpt>
      <trkpt lat="46.05912" lon="6.28994">
        <ele>717.28</ele>
        <time>2020-05-09T08:25:01Z</time>
      </trkpt>
      <trkpt lat="46.06118" lon="6.28925">
        <ele>703.34</ele>
        <time>2020-05-09T08:25:09Z</time>
      </trkpt>
      <trkpt lat="46.06352" lon="6.28852">
        <ele>688.92</ele>
        <time>2020-05-09T08:25:19Z</time>
      </trkpt>
      <trkpt lat="46.06416" lon="6.28838">
        <ele>683.63</ele>
        <time>2020-05-09T08:25:23Z</time>
      </trkpt>
      <trkpt lat="46.06426" lon="6.28836">
        <ele>683.15</ele>
        <time>2020-05-09T08:25:24Z</time>
      </trkpt>
      <trkpt lat="46.06436" lon="6.28858">
        <ele>682.67</ele>
        <time>2020-05-09T08:25:25Z</time>
      </trkpt>
      <trkpt lat="46.0645" lon="6.28854">
        <ele>682.19</ele>
        <time>2020-05-09T08:25:26Z</time>
      </trkpt>
      <trkpt lat="46.06456" lon="6.28849">
        <ele>682.19</ele>
        <time>2020-05-09T08:25:27Z</time>
      </trkpt>
      <trkpt lat="46.06467" lon="6.2883">
        <ele>681.71</ele>
        <time>2020-05-09T08:25:28Z</time>
      </trkpt>
      <trkpt lat="46.06481" lon="6.28826">
        <ele>680.75</ele>
        <time>2020-05-09T08:25:29Z</time>
      </trkpt>
      <trkpt lat="46.06496" lon="6.28821">
        <ele>680.27</ele>
        <time>2020-05-09T08:25:30Z</time>
      </trkpt>
      <trkpt lat="46.06632" lon="6.28742">
        <ele>673.54</ele>
        <time>2020-05-09T08:25:38Z</time>
      </trkpt>
      <trkpt lat="46.0679" lon="6.28672">
        <ele>665.85</ele>
        <time>2020-05-09T08:25:47Z</time>
      </trkpt>
      <trkpt lat="46.06808" lon="6.28674">
        <ele>664.89</ele>
        <time>2020-05-09T08:25:48Z</time>
      </trkpt>
      <trkpt lat="46.06826" lon="6.28679">
        <ele>663.93</ele>
        <time>2020-05-09T08:25:49Z</time>
      </trkpt>
      <trkpt lat="46.06845" lon="6.28684">
        <ele>662.97</ele>
        <time>2020-05-09T08:25:50Z</time>
      </trkpt>
      <trkpt lat="46.06864" lon="6.28692">
        <ele>662.01</ele>
        <time>2020-05-09T08:25:51Z</time>
      </trkpt>
      <trkpt lat="46.06883" lon="6.28703">
        <ele>661.04</ele>
        <time>2020-05-09T08:25:52Z</time>
      </trkpt>
      <trkpt lat="46.06901" lon="6.28713">
        <ele>660.08</ele>
        <time>2020-05-09T08:25:53Z</time>
      </trkpt>
      <trkpt lat="46.07038" lon="6.28802">
        <ele>652.39</ele>
        <time>2020-05-09T08:26:01Z</time>
      </trkpt>
      <trkpt lat="46.0721" lon="6.28826">
        <ele>642.78</ele>
        <time>2020-05-09T08:26:10Z</time>
      </trkpt>
      <trkpt lat="46.07365" lon="6.28866">
        <ele>634.13</ele>
        <time>2020-05-09T08:26:18Z</time>
      </trkpt>
      <trkpt lat="46.07382" lon="6.28878">
        <ele>632.68</ele>
        <time>2020-05-09T08:26:19Z</time>
      </trkpt>
      <trkpt lat="46.07399" lon="6.28893">
        <ele>631.72</ele>
        <time>2020-05-09T08:26:20Z</time>
      </trkpt>
      <trkpt lat="46.07415" lon="6.28911">
        <ele>630.76</ele>
        <time>2020-05-09T08:26:21Z</time>
      </trkpt>
      <trkpt lat="46.07428" lon="6.28932">
        <ele>629.8</ele>
        <time>2020-05-09T08:26:22Z</time>
      </trkpt>
      <trkpt lat="46.07441" lon="6.28953">
        <ele>628.84</ele>
        <time>2020-05-09T08:26:23Z</time>
      </trkpt>
      <trkpt lat="46.07453" lon="6.28975">
        <ele>627.88</ele>
        <time>2020-05-09T08:26:24Z</time>
      </trkpt>
      <trkpt lat="46.07464" lon="6.28999">
        <ele>627.4</ele>
        <time>2020-05-09T08:26:25Z</time>
      </trkpt>
      <trkpt lat="46.07472" lon="6.29025">
        <ele>626.92</ele>
        <time>2020-05-09T08:26:26Z</time>
      </trkpt>
      <trkpt lat="46.07477" lon="6.29051">
        <ele>625.96</ele>
        <time>2020-05-09T08:26:27Z</time>
      </trkpt>
      <trkpt lat="46.07508" lon="6.29171">
        <ele>621.63</ele>
        <time>2020-05-09T08:26:32Z</time>
      </trkpt>
      <trkpt lat="46.07516" lon="6.29189">
        <ele>621.15</ele>
        <time>2020-05-09T08:26:33Z</time>
      </trkpt>
      <trkpt lat="46.07519" lon="6.29215">
        <ele>620.19</ele>
        <time>2020-05-09T08:26:34Z</time>
      </trkpt>
      <trkpt lat="46.07513" lon="6.29235">
        <ele>619.71</ele>
        <time>2020-05-09T08:26:35Z</time>
      </trkpt>
      <trkpt lat="46.07505" lon="6.29257">
        <ele>619.23</ele>
        <time>2020-05-09T08:26:36Z</time>
      </trkpt>
      <trkpt lat="46.07497" lon="6.29283">
        <ele>618.26</ele>
        <time>2020-05-09T08:26:37Z</time>
      </trkpt>
      <trkpt lat="46.07451" lon="6.29396">
        <ele>614.9</ele>
        <time>2020-05-09T08:26:41Z</time>
      </trkpt>
      <trkpt lat="46.07435" lon="6.29423">
        <ele>613.94</ele>
        <time>2020-05-09T08:26:42Z</time>
      </trkpt>
      <trkpt lat="46.07291" lon="6.29634">
        <ele>607.21</ele>
        <time>2020-05-09T08:26:51Z</time>
      </trkpt>
      <trkpt lat="46.07234" lon="6.29703">
        <ele>604.33</ele>
        <time>2020-05-09T08:26:55Z</time>
      </trkpt>
      <trkpt lat="46.07148" lon="6.29802">
        <ele>599.04</ele>
        <time>2020-05-09T08:27:02Z</time>
      </trkpt>
      <trkpt lat="46.07093" lon="6.29947">
        <ele>590.87</ele>
        <time>2020-05-09T08:27:11Z</time>
      </trkpt>
      <trkpt lat="46.07089" lon="6.29963">
        <ele>590.39</ele>
        <time>2020-05-09T08:27:12Z</time>
      </trkpt>
      <trkpt lat="46.07086" lon="6.29978">
        <ele>589.91</ele>
        <time>2020-05-09T08:27:13Z</time>
      </trkpt>
      <trkpt lat="46.07074" lon="6.30048">
        <ele>588.95</ele>
        <time>2020-05-09T08:27:18Z</time>
      </trkpt>
      <trkpt lat="46.07078" lon="6.30057">
        <ele>589.43</ele>
        <time>2020-05-09T08:27:19Z</time>
      </trkpt>
      <trkpt lat="46.07085" lon="6.30072">
        <ele>589.43</ele>
        <time>2020-05-09T08:27:20Z</time>
      </trkpt>
      <trkpt lat="46.07084" lon="6.30084">
        <ele>589.91</ele>
        <time>2020-05-09T08:27:21Z</time>
      </trkpt>
      <trkpt lat="46.07082" lon="6.30098">
        <ele>589.91</ele>
        <time>2020-05-09T08:27:22Z</time>
      </trkpt>
      <trkpt lat="46.07076" lon="6.3011">
        <ele>590.87</ele>
        <time>2020-05-09T08:27:23Z</time>
      </trkpt>
      <trkpt lat="46.07071" lon="6.30123">
        <ele>591.35</ele>
        <time>2020-05-09T08:27:24Z</time>
      </trkpt>
      <trkpt lat="46.07064" lon="6.30137">
        <ele>591.35</ele>
        <time>2020-05-09T08:27:25Z</time>
      </trkpt>
      <trkpt lat="46.07058" lon="6.30152">
        <ele>591.83</ele>
        <time>2020-05-09T08:27:26Z</time>
      </trkpt>
      <trkpt lat="46.07055" lon="6.30169">
        <ele>591.83</ele>
        <time>2020-05-09T08:27:27Z</time>
      </trkpt>
      <trkpt lat="46.07046" lon="6.30211">
        <ele>590.87</ele>
        <time>2020-05-09T08:27:30Z</time>
      </trkpt>
      <trkpt lat="46.07044" lon="6.30223">
        <ele>590.39</ele>
        <time>2020-05-09T08:27:31Z</time>
      </trkpt>
      <trkpt lat="46.07033" lon="6.30229">
        <ele>590.39</ele>
        <time>2020-05-09T08:27:32Z</time>
      </trkpt>
      <trkpt lat="46.07031" lon="6.30237">
        <ele>589.91</ele>
        <time>2020-05-09T08:27:33Z</time>
      </trkpt>
      <trkpt lat="46.07037" lon="6.3025">
        <ele>589.43</ele>
        <time>2020-05-09T08:27:34Z</time>
      </trkpt>
      <trkpt lat="46.07035" lon="6.30264">
        <ele>588.95</ele>
        <time>2020-05-09T08:27:35Z</time>
      </trkpt>
      <trkpt lat="46.07032" lon="6.3028">
        <ele>587.98</ele>
        <time>2020-05-09T08:27:36Z</time>
      </trkpt>
      <trkpt lat="46.0703" lon="6.30297">
        <ele>587.02</ele>
        <time>2020-05-09T08:27:37Z</time>
      </trkpt>
      <trkpt lat="46.07027" lon="6.30315">
        <ele>585.58</ele>
        <time>2020-05-09T08:27:38Z</time>
      </trkpt>
      <trkpt lat="46.07024" lon="6.30334">
        <ele>584.62</ele>
        <time>2020-05-09T08:27:39Z</time>
      </trkpt>
      <trkpt lat="46.07005" lon="6.30452">
        <ele>575.97</ele>
        <time>2020-05-09T08:27:47Z</time>
      </trkpt>
      <trkpt lat="46.06995" lon="6.30504">
        <ele>572.12</ele>
        <time>2020-05-09T08:27:51Z</time>
      </trkpt>
      <trkpt lat="46.06988" lon="6.30528">
        <ele>570.68</ele>
        <time>2020-05-09T08:27:53Z</time>
      </trkpt>
      <trkpt lat="46.06987" lon="6.30549">
        <ele>569.72</ele>
        <time>2020-05-09T08:27:55Z</time>
      </trkpt>
      <trkpt lat="46.06984" lon="6.30559">
        <ele>569.72</ele>
        <time>2020-05-09T08:27:56Z</time>
      </trkpt>
      <trkpt lat="46.06982" lon="6.30571">
        <ele>569.72</ele>
        <time>2020-05-09T08:27:57Z</time>
      </trkpt>
      <trkpt lat="46.0698" lon="6.30583">
        <ele>569.72</ele>
        <time>2020-05-09T08:27:58Z</time>
      </trkpt>
      <trkpt lat="46.06977" lon="6.30598">
        <ele>569.24</ele>
        <time>2020-05-09T08:27:59Z</time>
      </trkpt>
      <trkpt lat="46.06961" lon="6.30679">
        <ele>566.35</ele>
        <time>2020-05-09T08:28:05Z</time>
      </trkpt>
      <trkpt lat="46.06959" lon="6.30692">
        <ele>565.87</ele>
        <time>2020-05-09T08:28:06Z</time>
      </trkpt>
      <trkpt lat="46.06947" lon="6.30728">
        <ele>564.91</ele>
        <time>2020-05-09T08:28:09Z</time>
      </trkpt>
      <trkpt lat="46.0693" lon="6.30768">
        <ele>564.91</ele>
        <time>2020-05-09T08:28:14Z</time>
      </trkpt>
      <trkpt lat="46.06927" lon="6.30773">
        <ele>564.91</ele>
        <time>2020-05-09T08:28:15Z</time>
      </trkpt>
      <trkpt lat="46.06912" lon="6.308">
        <ele>564.91</ele>
        <time>2020-05-09T08:28:18Z</time>
      </trkpt>
      <trkpt lat="46.06895" lon="6.30821">
        <ele>565.39</ele>
        <time>2020-05-09T08:28:20Z</time>
      </trkpt>
      <trkpt lat="46.06887" lon="6.30831">
        <ele>565.39</ele>
        <time>2020-05-09T08:28:21Z</time>
      </trkpt>
      <trkpt lat="46.06871" lon="6.30852">
        <ele>565.87</ele>
        <time>2020-05-09T08:28:23Z</time>
      </trkpt>
      <trkpt lat="46.06838" lon="6.30894">
        <ele>565.39</ele>
        <time>2020-05-09T08:28:27Z</time>
      </trkpt>
      <trkpt lat="46.06826" lon="6.30911">
        <ele>564.91</ele>
        <time>2020-05-09T08:28:29Z</time>
      </trkpt>
      <trkpt lat="46.06821" lon="6.30917">
        <ele>564.91</ele>
        <time>2020-05-09T08:28:30Z</time>
      </trkpt>
      <trkpt lat="46.06817" lon="6.30922">
        <ele>564.91</ele>
        <time>2020-05-09T08:28:31Z</time>
      </trkpt>
      <trkpt lat="46.06814" lon="6.30929">
        <ele>564.43</ele>
        <time>2020-05-09T08:28:32Z</time>
      </trkpt>
      <trkpt lat="46.06813" lon="6.30932">
        <ele>564.43</ele>
        <time>2020-05-09T08:28:33Z</time>
      </trkpt>
      <trkpt lat="46.06811" lon="6.30937">
        <ele>564.43</ele>
        <time>2020-05-09T08:28:34Z</time>
      </trkpt>
      <trkpt lat="46.0681" lon="6.30941">
        <ele>564.43</ele>
        <time>2020-05-09T08:28:35Z</time>
      </trkpt>
      <trkpt lat="46.06809" lon="6.30944">
        <ele>563.95</ele>
        <time>2020-05-09T08:28:36Z</time>
      </trkpt>
      <trkpt lat="46.06809" lon="6.30944">
        <ele>563.95</ele>
        <time>2020-05-09T08:28:47Z</time>
      </trkpt>
      <trkpt lat="46.0675" lon="6.30801">
        <ele>568.28</ele>
        <time>2020-05-09T10:41:49Z</time>
      </trkpt>
      <trkpt lat="46.06758" lon="6.30798">
        <ele>571.64</ele>
        <time>2020-05-09T10:41:52Z</time>
      </trkpt>
      <trkpt lat="46.06758" lon="6.30798">
        <ele>570.68</ele>
        <time>2020-05-09T10:41:53Z</time>
      </trkpt>
      <trkpt lat="46.06776" lon="6.30784">
        <ele>569.72</ele>
        <time>2020-05-09T10:41:54Z</time>
      </trkpt>
      <trkpt lat="46.06784" lon="6.30778">
        <ele>569.24</ele>
        <time>2020-05-09T10:41:55Z</time>
      </trkpt>
      <trkpt lat="46.06788" lon="6.30774">
        <ele>569.72</ele>
        <time>2020-05-09T10:41:56Z</time>
      </trkpt>
      <trkpt lat="46.06791" lon="6.30772">
        <ele>569.24</ele>
        <time>2020-05-09T10:41:57Z</time>
      </trkpt>
      <trkpt lat="46.06799" lon="6.30764">
        <ele>568.76</ele>
        <time>2020-05-09T10:41:59Z</time>
      </trkpt>
      <trkpt lat="46.06798" lon="6.3076">
        <ele>568.76</ele>
        <time>2020-05-09T10:42:00Z</time>
      </trkpt>
      <trkpt lat="46.06796" lon="6.30749">
        <ele>568.76</ele>
        <time>2020-05-09T10:42:01Z</time>
      </trkpt>
      <trkpt lat="46.06793" lon="6.30735">
        <ele>568.28</ele>
        <time>2020-05-09T10:42:02Z</time>
      </trkpt>
      <trkpt lat="46.06789" lon="6.30718">
        <ele>568.76</ele>
        <time>2020-05-09T10:42:03Z</time>
      </trkpt>
      <trkpt lat="46.06786" lon="6.30705">
        <ele>568.76</ele>
        <time>2020-05-09T10:42:04Z</time>
      </trkpt>
      <trkpt lat="46.06785" lon="6.30682">
        <ele>569.24</ele>
        <time>2020-05-09T10:42:05Z</time>
      </trkpt>
      <trkpt lat="46.06784" lon="6.30662">
        <ele>569.72</ele>
        <time>2020-05-09T10:42:06Z</time>
      </trkpt>
      <trkpt lat="46.06783" lon="6.30643">
        <ele>570.68</ele>
        <time>2020-05-09T10:42:07Z</time>
      </trkpt>
      <trkpt lat="46.06782" lon="6.30624">
        <ele>572.12</ele>
        <time>2020-05-09T10:42:08Z</time>
      </trkpt>
      <trkpt lat="46.06785" lon="6.30605">
        <ele>573.56</ele>
        <time>2020-05-09T10:42:09Z</time>
      </trkpt>
      <trkpt lat="46.06788" lon="6.30588">
        <ele>574.04</ele>
        <time>2020-05-09T10:42:10Z</time>
      </trkpt>
      <trkpt lat="46.06792" lon="6.30571">
        <ele>574.53</ele>
        <time>2020-05-09T10:42:11Z</time>
      </trkpt>
      <trkpt lat="46.06797" lon="6.30555">
        <ele>575.01</ele>
        <time>2020-05-09T10:42:12Z</time>
      </trkpt>
      <trkpt lat="46.06802" lon="6.3054">
        <ele>575.01</ele>
        <time>2020-05-09T10:42:13Z</time>
      </trkpt>
      <trkpt lat="46.06807" lon="6.30526">
        <ele>575.49</ele>
        <time>2020-05-09T10:42:14Z</time>
      </trkpt>
      <trkpt lat="46.06812" lon="6.30514">
        <ele>575.97</ele>
        <time>2020-05-09T10:42:15Z</time>
      </trkpt>
      <trkpt lat="46.06815" lon="6.30503">
        <ele>576.45</ele>
        <time>2020-05-09T10:42:16Z</time>
      </trkpt>
      <trkpt lat="46.06831" lon="6.3046">
        <ele>579.81</ele>
        <time>2020-05-09T10:42:21Z</time>
      </trkpt>
      <trkpt lat="46.06834" lon="6.30451">
        <ele>580.77</ele>
        <time>2020-05-09T10:42:22Z</time>
      </trkpt>
      <trkpt lat="46.06838" lon="6.30439">
        <ele>580.77</ele>
        <time>2020-05-09T10:42:23Z</time>
      </trkpt>
      <trkpt lat="46.06843" lon="6.30424">
        <ele>581.25</ele>
        <time>2020-05-09T10:42:24Z</time>
      </trkpt>
      <trkpt lat="46.06849" lon="6.30408">
        <ele>581.25</ele>
        <time>2020-05-09T10:42:25Z</time>
      </trkpt>
      <trkpt lat="46.06854" lon="6.30392">
        <ele>581.73</ele>
        <time>2020-05-09T10:42:26Z</time>
      </trkpt>
      <trkpt lat="46.06857" lon="6.30377">
        <ele>582.22</ele>
        <time>2020-05-09T10:42:27Z</time>
      </trkpt>
      <trkpt lat="46.06858" lon="6.30362">
        <ele>582.22</ele>
        <time>2020-05-09T10:42:28Z</time>
      </trkpt>
      <trkpt lat="46.06861" lon="6.30285">
        <ele>585.58</ele>
        <time>2020-05-09T10:42:33Z</time>
      </trkpt>
      <trkpt lat="46.06861" lon="6.30264">
        <ele>586.06</ele>
        <time>2020-05-09T10:42:35Z</time>
      </trkpt>
      <trkpt lat="46.06863" lon="6.30254">
        <ele>586.54</ele>
        <time>2020-05-09T10:42:36Z</time>
      </trkpt>
      <trkpt lat="46.06864" lon="6.30247">
        <ele>587.02</ele>
        <time>2020-05-09T10:42:37Z</time>
      </trkpt>
      <trkpt lat="46.06868" lon="6.30238">
        <ele>587.5</ele>
        <time>2020-05-09T10:42:38Z</time>
      </trkpt>
      <trkpt lat="46.06885" lon="6.30233">
        <ele>587.5</ele>
        <time>2020-05-09T10:42:39Z</time>
      </trkpt>
      <trkpt lat="46.06889" lon="6.30231">
        <ele>587.98</ele>
        <time>2020-05-09T10:42:40Z</time>
      </trkpt>
      <trkpt lat="46.069" lon="6.30225">
        <ele>588.46</ele>
        <time>2020-05-09T10:42:41Z</time>
      </trkpt>
      <trkpt lat="46.06954" lon="6.30192">
        <ele>589.43</ele>
        <time>2020-05-09T10:42:45Z</time>
      </trkpt>
      <trkpt lat="46.0704" lon="6.30082">
        <ele>592.79</ele>
        <time>2020-05-09T10:42:53Z</time>
      </trkpt>
      <trkpt lat="46.07052" lon="6.30065">
        <ele>594.71</ele>
        <time>2020-05-09T10:42:55Z</time>
      </trkpt>
      <trkpt lat="46.07058" lon="6.30059">
        <ele>595.19</ele>
        <time>2020-05-09T10:42:56Z</time>
      </trkpt>
      <trkpt lat="46.07062" lon="6.30056">
        <ele>595.67</ele>
        <time>2020-05-09T10:42:57Z</time>
      </trkpt>
      <trkpt lat="46.07078" lon="6.30057">
        <ele>595.67</ele>
        <time>2020-05-09T10:42:58Z</time>
      </trkpt>
      <trkpt lat="46.07078" lon="6.30057">
        <ele>596.15</ele>
        <time>2020-05-09T10:42:59Z</time>
      </trkpt>
      <trkpt lat="46.07087" lon="6.3006">
        <ele>596.64</ele>
        <time>2020-05-09T10:43:00Z</time>
      </trkpt>
      <trkpt lat="46.07093" lon="6.30054">
        <ele>596.64</ele>
        <time>2020-05-09T10:43:01Z</time>
      </trkpt>
      <trkpt lat="46.07099" lon="6.30039">
        <ele>596.64</ele>
        <time>2020-05-09T10:43:02Z</time>
      </trkpt>
      <trkpt lat="46.0711" lon="6.3003">
        <ele>597.12</ele>
        <time>2020-05-09T10:43:03Z</time>
      </trkpt>
      <trkpt lat="46.07123" lon="6.30019">
        <ele>597.12</ele>
        <time>2020-05-09T10:43:04Z</time>
      </trkpt>
      <trkpt lat="46.07251" lon="6.29914">
        <ele>597.12</ele>
        <time>2020-05-09T10:43:13Z</time>
      </trkpt>
      <trkpt lat="46.07312" lon="6.29866">
        <ele>598.56</ele>
        <time>2020-05-09T10:43:19Z</time>
      </trkpt>
      <trkpt lat="46.07363" lon="6.29826">
        <ele>599.52</ele>
        <time>2020-05-09T10:43:26Z</time>
      </trkpt>
      <trkpt lat="46.07474" lon="6.29754">
        <ele>600</ele>
        <time>2020-05-09T10:43:33Z</time>
      </trkpt>
      <trkpt lat="46.07492" lon="6.29745">
        <ele>600</ele>
        <time>2020-05-09T10:43:34Z</time>
      </trkpt>
      <trkpt lat="46.0751" lon="6.29737">
        <ele>600.96</ele>
        <time>2020-05-09T10:43:35Z</time>
      </trkpt>
      <trkpt lat="46.07527" lon="6.29736">
        <ele>601.92</ele>
        <time>2020-05-09T10:43:36Z</time>
      </trkpt>
      <trkpt lat="46.07545" lon="6.29737">
        <ele>602.88</ele>
        <time>2020-05-09T10:43:37Z</time>
      </trkpt>
      <trkpt lat="46.07563" lon="6.29737">
        <ele>603.85</ele>
        <time>2020-05-09T10:43:38Z</time>
      </trkpt>
      <trkpt lat="46.0758" lon="6.29743">
        <ele>604.81</ele>
        <time>2020-05-09T10:43:39Z</time>
      </trkpt>
      <trkpt lat="46.07597" lon="6.29751">
        <ele>605.29</ele>
        <time>2020-05-09T10:43:40Z</time>
      </trkpt>
      <trkpt lat="46.07615" lon="6.29759">
        <ele>605.77</ele>
        <time>2020-05-09T10:43:41Z</time>
      </trkpt>
      <trkpt lat="46.07633" lon="6.29761">
        <ele>605.29</ele>
        <time>2020-05-09T10:43:42Z</time>
      </trkpt>
      <trkpt lat="46.07651" lon="6.29761">
        <ele>604.81</ele>
        <time>2020-05-09T10:43:43Z</time>
      </trkpt>
      <trkpt lat="46.0767" lon="6.29758">
        <ele>604.33</ele>
        <time>2020-05-09T10:43:44Z</time>
      </trkpt>
      <trkpt lat="46.07686" lon="6.29747">
        <ele>603.36</ele>
        <time>2020-05-09T10:43:45Z</time>
      </trkpt>
      <trkpt lat="46.07704" lon="6.29735">
        <ele>602.88</ele>
        <time>2020-05-09T10:43:46Z</time>
      </trkpt>
      <trkpt lat="46.07722" lon="6.29724">
        <ele>601.92</ele>
        <time>2020-05-09T10:43:47Z</time>
      </trkpt>
      <trkpt lat="46.0774" lon="6.29713">
        <ele>600.96</ele>
        <time>2020-05-09T10:43:48Z</time>
      </trkpt>
      <trkpt lat="46.07757" lon="6.297">
        <ele>600.48</ele>
        <time>2020-05-09T10:43:49Z</time>
      </trkpt>
      <trkpt lat="46.07797" lon="6.29668">
        <ele>600</ele>
        <time>2020-05-09T10:43:52Z</time>
      </trkpt>
      <trkpt lat="46.07806" lon="6.29657">
        <ele>599.52</ele>
        <time>2020-05-09T10:43:53Z</time>
      </trkpt>
      <trkpt lat="46.07813" lon="6.29648">
        <ele>599.04</ele>
        <time>2020-05-09T10:43:54Z</time>
      </trkpt>
      <trkpt lat="46.07818" lon="6.29639">
        <ele>598.56</ele>
        <time>2020-05-09T10:43:55Z</time>
      </trkpt>
      <trkpt lat="46.07821" lon="6.29632">
        <ele>597.6</ele>
        <time>2020-05-09T10:43:56Z</time>
      </trkpt>
      <trkpt lat="46.07816" lon="6.29622">
        <ele>597.12</ele>
        <time>2020-05-09T10:43:57Z</time>
      </trkpt>
      <trkpt lat="46.0781" lon="6.29618">
        <ele>596.64</ele>
        <time>2020-05-09T10:43:58Z</time>
      </trkpt>
      <trkpt lat="46.07802" lon="6.29618">
        <ele>596.64</ele>
        <time>2020-05-09T10:43:59Z</time>
      </trkpt>
      <trkpt lat="46.07794" lon="6.29623">
        <ele>596.15</ele>
        <time>2020-05-09T10:44:00Z</time>
      </trkpt>
      <trkpt lat="46.07784" lon="6.2963">
        <ele>595.19</ele>
        <time>2020-05-09T10:44:01Z</time>
      </trkpt>
      <trkpt lat="46.07774" lon="6.29638">
        <ele>595.67</ele>
        <time>2020-05-09T10:44:02Z</time>
      </trkpt>
      <trkpt lat="46.07764" lon="6.29646">
        <ele>595.67</ele>
        <time>2020-05-09T10:44:03Z</time>
      </trkpt>
      <trkpt lat="46.07756" lon="6.29652">
        <ele>595.67</ele>
        <time>2020-05-09T10:44:04Z</time>
      </trkpt>
      <trkpt lat="46.07744" lon="6.29646">
        <ele>595.19</ele>
        <time>2020-05-09T10:44:05Z</time>
      </trkpt>
      <trkpt lat="46.07736" lon="6.29641">
        <ele>595.19</ele>
        <time>2020-05-09T10:44:06Z</time>
      </trkpt>
      <trkpt lat="46.07722" lon="6.29635">
        <ele>595.19</ele>
        <time>2020-05-09T10:44:07Z</time>
      </trkpt>
      <trkpt lat="46.07717" lon="6.2962">
        <ele>594.23</ele>
        <time>2020-05-09T10:44:08Z</time>
      </trkpt>
      <trkpt lat="46.07711" lon="6.29602">
        <ele>593.75</ele>
        <time>2020-05-09T10:44:09Z</time>
      </trkpt>
      <trkpt lat="46.07704" lon="6.29581">
        <ele>593.27</ele>
        <time>2020-05-09T10:44:10Z</time>
      </trkpt>
      <trkpt lat="46.0765" lon="6.2943">
        <ele>597.6</ele>
        <time>2020-05-09T10:44:15Z</time>
      </trkpt>
      <trkpt lat="46.07607" lon="6.29327">
        <ele>603.36</ele>
        <time>2020-05-09T10:44:18Z</time>
      </trkpt>
      <trkpt lat="46.07588" lon="6.29297">
        <ele>605.29</ele>
        <time>2020-05-09T10:44:19Z</time>
      </trkpt>
      <trkpt lat="46.07519" lon="6.29172">
        <ele>613.94</ele>
        <time>2020-05-09T10:44:23Z</time>
      </trkpt>
      <trkpt lat="46.07505" lon="6.29141">
        <ele>615.86</ele>
        <time>2020-05-09T10:44:24Z</time>
      </trkpt>
      <trkpt lat="46.07492" lon="6.29107">
        <ele>617.78</ele>
        <time>2020-05-09T10:44:25Z</time>
      </trkpt>
      <trkpt lat="46.07483" lon="6.29072">
        <ele>619.23</ele>
        <time>2020-05-09T10:44:26Z</time>
      </trkpt>
      <trkpt lat="46.07475" lon="6.29038">
        <ele>621.15</ele>
        <time>2020-05-09T10:44:27Z</time>
      </trkpt>
      <trkpt lat="46.07466" lon="6.29005">
        <ele>622.59</ele>
        <time>2020-05-09T10:44:28Z</time>
      </trkpt>
      <trkpt lat="46.07453" lon="6.28975">
        <ele>624.51</ele>
        <time>2020-05-09T10:44:29Z</time>
      </trkpt>
      <trkpt lat="46.07439" lon="6.28949">
        <ele>625.47</ele>
        <time>2020-05-09T10:44:30Z</time>
      </trkpt>
      <trkpt lat="46.07423" lon="6.28924">
        <ele>626.92</ele>
        <time>2020-05-09T10:44:31Z</time>
      </trkpt>
      <trkpt lat="46.07405" lon="6.289">
        <ele>628.36</ele>
        <time>2020-05-09T10:44:32Z</time>
      </trkpt>
      <trkpt lat="46.07386" lon="6.2888">
        <ele>629.32</ele>
        <time>2020-05-09T10:44:33Z</time>
      </trkpt>
      <trkpt lat="46.07364" lon="6.28865">
        <ele>630.76</ele>
        <time>2020-05-09T10:44:34Z</time>
      </trkpt>
      <trkpt lat="46.07341" lon="6.28853">
        <ele>631.72</ele>
        <time>2020-05-09T10:44:35Z</time>
      </trkpt>
      <trkpt lat="46.07317" lon="6.28842">
        <ele>633.17</ele>
        <time>2020-05-09T10:44:36Z</time>
      </trkpt>
      <trkpt lat="46.07293" lon="6.28836">
        <ele>634.61</ele>
        <time>2020-05-09T10:44:37Z</time>
      </trkpt>
      <trkpt lat="46.07268" lon="6.28832">
        <ele>635.57</ele>
        <time>2020-05-09T10:44:38Z</time>
      </trkpt>
      <trkpt lat="46.07243" lon="6.28828">
        <ele>636.53</ele>
        <time>2020-05-09T10:44:39Z</time>
      </trkpt>
      <trkpt lat="46.07219" lon="6.28826">
        <ele>637.49</ele>
        <time>2020-05-09T10:44:40Z</time>
      </trkpt>
      <trkpt lat="46.07033" lon="6.28801">
        <ele>647.59</ele>
        <time>2020-05-09T10:44:47Z</time>
      </trkpt>
      <trkpt lat="46.07007" lon="6.28787">
        <ele>648.55</ele>
        <time>2020-05-09T10:44:48Z</time>
      </trkpt>
      <trkpt lat="46.06983" lon="6.2877">
        <ele>649.51</ele>
        <time>2020-05-09T10:44:49Z</time>
      </trkpt>
      <trkpt lat="46.06839" lon="6.28682">
        <ele>656.72</ele>
        <time>2020-05-09T10:44:55Z</time>
      </trkpt>
      <trkpt lat="46.06815" lon="6.28676">
        <ele>657.68</ele>
        <time>2020-05-09T10:44:56Z</time>
      </trkpt>
      <trkpt lat="46.0679" lon="6.28672">
        <ele>659.12</ele>
        <time>2020-05-09T10:44:57Z</time>
      </trkpt>
      <trkpt lat="46.06766" lon="6.28677">
        <ele>660.56</ele>
        <time>2020-05-09T10:44:58Z</time>
      </trkpt>
      <trkpt lat="46.06742" lon="6.28681">
        <ele>661.52</ele>
        <time>2020-05-09T10:44:59Z</time>
      </trkpt>
      <trkpt lat="46.0672" lon="6.28689">
        <ele>662.97</ele>
        <time>2020-05-09T10:45:00Z</time>
      </trkpt>
      <trkpt lat="46.06698" lon="6.28702">
        <ele>663.93</ele>
        <time>2020-05-09T10:45:01Z</time>
      </trkpt>
      <trkpt lat="46.06676" lon="6.28716">
        <ele>665.37</ele>
        <time>2020-05-09T10:45:02Z</time>
      </trkpt>
      <trkpt lat="46.06518" lon="6.28811">
        <ele>675.46</ele>
        <time>2020-05-09T10:45:10Z</time>
      </trkpt>
      <trkpt lat="46.06475" lon="6.28827">
        <ele>679.31</ele>
        <time>2020-05-09T10:45:13Z</time>
      </trkpt>
      <trkpt lat="46.06463" lon="6.28831">
        <ele>680.27</ele>
        <time>2020-05-09T10:45:14Z</time>
      </trkpt>
      <trkpt lat="46.06452" lon="6.28819">
        <ele>681.23</ele>
        <time>2020-05-09T10:45:15Z</time>
      </trkpt>
      <trkpt lat="46.06442" lon="6.28816">
        <ele>682.19</ele>
        <time>2020-05-09T10:45:16Z</time>
      </trkpt>
      <trkpt lat="46.06432" lon="6.28822">
        <ele>683.15</ele>
        <time>2020-05-09T10:45:17Z</time>
      </trkpt>
      <trkpt lat="46.06428" lon="6.28826">
        <ele>683.63</ele>
        <time>2020-05-09T10:45:18Z</time>
      </trkpt>
      <trkpt lat="46.06412" lon="6.28839">
        <ele>684.12</ele>
        <time>2020-05-09T10:45:19Z</time>
      </trkpt>
      <trkpt lat="46.06399" lon="6.28842">
        <ele>685.08</ele>
        <time>2020-05-09T10:45:20Z</time>
      </trkpt>
      <trkpt lat="46.06383" lon="6.28845">
        <ele>686.04</ele>
        <time>2020-05-09T10:45:21Z</time>
      </trkpt>
      <trkpt lat="46.06365" lon="6.28849">
        <ele>687</ele>
        <time>2020-05-09T10:45:22Z</time>
      </trkpt>
      <trkpt lat="46.06244" lon="6.28883">
        <ele>691.81</ele>
        <time>2020-05-09T10:45:27Z</time>
      </trkpt>
      <trkpt lat="46.06061" lon="6.28945">
        <ele>699.02</ele>
        <time>2020-05-09T10:45:33Z</time>
      </trkpt>
      <trkpt lat="46.05825" lon="6.2901">
        <ele>711.51</ele>
        <time>2020-05-09T10:45:40Z</time>
      </trkpt>
      <trkpt lat="46.0579" lon="6.29005">
        <ele>713.44</ele>
        <time>2020-05-09T10:45:41Z</time>
      </trkpt>
      <trkpt lat="46.05757" lon="6.28996">
        <ele>714.88</ele>
        <time>2020-05-09T10:45:42Z</time>
      </trkpt>
      <trkpt lat="46.05725" lon="6.28982">
        <ele>716.8</ele>
        <time>2020-05-09T10:45:43Z</time>
      </trkpt>
      <trkpt lat="46.05696" lon="6.28962">
        <ele>718.72</ele>
        <time>2020-05-09T10:45:44Z</time>
      </trkpt>
      <trkpt lat="46.05667" lon="6.28938">
        <ele>720.16</ele>
        <time>2020-05-09T10:45:45Z</time>
      </trkpt>
      <trkpt lat="46.05642" lon="6.28906">
        <ele>722.09</ele>
        <time>2020-05-09T10:45:46Z</time>
      </trkpt>
      <trkpt lat="46.0562" lon="6.28871">
        <ele>724.01</ele>
        <time>2020-05-09T10:45:47Z</time>
      </trkpt>
      <trkpt lat="46.05601" lon="6.28833">
        <ele>725.45</ele>
        <time>2020-05-09T10:45:48Z</time>
      </trkpt>
      <trkpt lat="46.05583" lon="6.2879">
        <ele>727.37</ele>
        <time>2020-05-09T10:45:49Z</time>
      </trkpt>
      <trkpt lat="46.05565" lon="6.28745">
        <ele>729.3</ele>
        <time>2020-05-09T10:45:50Z</time>
      </trkpt>
      <trkpt lat="46.05454" lon="6.28422">
        <ele>737.95</ele>
        <time>2020-05-09T10:45:56Z</time>
      </trkpt>
      <trkpt lat="46.05312" lon="6.28018">
        <ele>747.56</ele>
        <time>2020-05-09T10:46:03Z</time>
      </trkpt>
      <trkpt lat="46.05164" lon="6.27558">
        <ele>754.77</ele>
        <time>2020-05-09T10:46:11Z</time>
      </trkpt>
      <trkpt lat="46.05132" lon="6.27355">
        <ele>759.1</ele>
        <time>2020-05-09T10:46:15Z</time>
      </trkpt>
      <trkpt lat="46.05129" lon="6.27074">
        <ele>767.27</ele>
        <time>2020-05-09T10:46:21Z</time>
      </trkpt>
      <trkpt lat="46.05148" lon="6.2684">
        <ele>771.6</ele>
        <time>2020-05-09T10:46:26Z</time>
      </trkpt>
      <trkpt lat="46.05147" lon="6.26798">
        <ele>772.08</ele>
        <time>2020-05-09T10:46:27Z</time>
      </trkpt>
      <trkpt lat="46.05142" lon="6.26755">
        <ele>772.56</ele>
        <time>2020-05-09T10:46:28Z</time>
      </trkpt>
      <trkpt lat="46.05134" lon="6.26715">
        <ele>773.52</ele>
        <time>2020-05-09T10:46:29Z</time>
      </trkpt>
      <trkpt lat="46.05124" lon="6.26675">
        <ele>774</ele>
        <time>2020-05-09T10:46:30Z</time>
      </trkpt>
      <trkpt lat="46.05111" lon="6.26637">
        <ele>774.48</ele>
        <time>2020-05-09T10:46:31Z</time>
      </trkpt>
      <trkpt lat="46.05095" lon="6.26602">
        <ele>775.92</ele>
        <time>2020-05-09T10:46:32Z</time>
      </trkpt>
      <trkpt lat="46.05076" lon="6.26568">
        <ele>777.36</ele>
        <time>2020-05-09T10:46:33Z</time>
      </trkpt>
      <trkpt lat="46.05055" lon="6.26538">
        <ele>778.32</ele>
        <time>2020-05-09T10:46:34Z</time>
      </trkpt>
      <trkpt lat="46.05027" lon="6.26511">
        <ele>779.77</ele>
        <time>2020-05-09T10:46:35Z</time>
      </trkpt>
      <trkpt lat="46.05" lon="6.26484">
        <ele>781.21</ele>
        <time>2020-05-09T10:46:36Z</time>
      </trkpt>
      <trkpt lat="46.0497" lon="6.26461">
        <ele>782.65</ele>
        <time>2020-05-09T10:46:37Z</time>
      </trkpt>
      <trkpt lat="46.04914" lon="6.26413">
        <ele>786.02</ele>
        <time>2020-05-09T10:46:39Z</time>
      </trkpt>
      <trkpt lat="46.04891" lon="6.26385">
        <ele>787.46</ele>
        <time>2020-05-09T10:46:40Z</time>
      </trkpt>
      <trkpt lat="46.04867" lon="6.26357">
        <ele>789.38</ele>
        <time>2020-05-09T10:46:41Z</time>
      </trkpt>
      <trkpt lat="46.04848" lon="6.26322">
        <ele>790.82</ele>
        <time>2020-05-09T10:46:42Z</time>
      </trkpt>
      <trkpt lat="46.04828" lon="6.26287">
        <ele>792.74</ele>
        <time>2020-05-09T10:46:43Z</time>
      </trkpt>
      <trkpt lat="46.04809" lon="6.2625">
        <ele>794.67</ele>
        <time>2020-05-09T10:46:44Z</time>
      </trkpt>
      <trkpt lat="46.04732" lon="6.26086">
        <ele>801.88</ele>
        <time>2020-05-09T10:46:49Z</time>
      </trkpt>
      <trkpt lat="46.04629" lon="6.25875">
        <ele>807.16</ele>
        <time>2020-05-09T10:46:58Z</time>
      </trkpt>
      <trkpt lat="46.04546" lon="6.25706">
        <ele>808.61</ele>
        <time>2020-05-09T10:47:04Z</time>
      </trkpt>
      <trkpt lat="46.04456" lon="6.25512">
        <ele>810.05</ele>
        <time>2020-05-09T10:47:09Z</time>
      </trkpt>
      <trkpt lat="46.04444" lon="6.25469">
        <ele>810.05</ele>
        <time>2020-05-09T10:47:10Z</time>
      </trkpt>
      <trkpt lat="46.04389" lon="6.25241">
        <ele>807.64</ele>
        <time>2020-05-09T10:47:15Z</time>
      </trkpt>
      <trkpt lat="46.04346" lon="6.25086">
        <ele>804.28</ele>
        <time>2020-05-09T10:47:19Z</time>
      </trkpt>
      <trkpt lat="46.04329" lon="6.25052">
        <ele>802.84</ele>
        <time>2020-05-09T10:47:20Z</time>
      </trkpt>
      <trkpt lat="46.04312" lon="6.25018">
        <ele>801.4</ele>
        <time>2020-05-09T10:47:21Z</time>
      </trkpt>
      <trkpt lat="46.04291" lon="6.24986">
        <ele>799.95</ele>
        <time>2020-05-09T10:47:22Z</time>
      </trkpt>
      <trkpt lat="46.04269" lon="6.24956">
        <ele>798.51</ele>
        <time>2020-05-09T10:47:23Z</time>
      </trkpt>
      <trkpt lat="46.04139" lon="6.24783">
        <ele>793.71</ele>
        <time>2020-05-09T10:47:29Z</time>
      </trkpt>
      <trkpt lat="46.04119" lon="6.2476">
        <ele>794.19</ele>
        <time>2020-05-09T10:47:30Z</time>
      </trkpt>
      <trkpt lat="46.04095" lon="6.24743">
        <ele>794.67</ele>
        <time>2020-05-09T10:47:31Z</time>
      </trkpt>
      <trkpt lat="46.04071" lon="6.24728">
        <ele>795.63</ele>
        <time>2020-05-09T10:47:32Z</time>
      </trkpt>
      <trkpt lat="46.04045" lon="6.24718">
        <ele>796.11</ele>
        <time>2020-05-09T10:47:33Z</time>
      </trkpt>
      <trkpt lat="46.04018" lon="6.24711">
        <ele>796.59</ele>
        <time>2020-05-09T10:47:34Z</time>
      </trkpt>
      <trkpt lat="46.03964" lon="6.2469">
        <ele>797.55</ele>
        <time>2020-05-09T10:47:36Z</time>
      </trkpt>
      <trkpt lat="46.03938" lon="6.24675">
        <ele>798.03</ele>
        <time>2020-05-09T10:47:37Z</time>
      </trkpt>
      <trkpt lat="46.03915" lon="6.24652">
        <ele>798.03</ele>
        <time>2020-05-09T10:47:38Z</time>
      </trkpt>
      <trkpt lat="46.03893" lon="6.24629">
        <ele>798.03</ele>
        <time>2020-05-09T10:47:39Z</time>
      </trkpt>
      <trkpt lat="46.03874" lon="6.246">
        <ele>798.03</ele>
        <time>2020-05-09T10:47:40Z</time>
      </trkpt>
      <trkpt lat="46.03857" lon="6.24568">
        <ele>797.55</ele>
        <time>2020-05-09T10:47:41Z</time>
      </trkpt>
      <trkpt lat="46.03843" lon="6.24533">
        <ele>797.07</ele>
        <time>2020-05-09T10:47:42Z</time>
      </trkpt>
      <trkpt lat="46.03833" lon="6.24493">
        <ele>796.11</ele>
        <time>2020-05-09T10:47:43Z</time>
      </trkpt>
      <trkpt lat="46.03824" lon="6.24452">
        <ele>795.15</ele>
        <time>2020-05-09T10:47:44Z</time>
      </trkpt>
      <trkpt lat="46.03814" lon="6.24409">
        <ele>793.22</ele>
        <time>2020-05-09T10:47:45Z</time>
      </trkpt>
      <trkpt lat="46.03768" lon="6.2423">
        <ele>784.57</ele>
        <time>2020-05-09T10:47:50Z</time>
      </trkpt>
      <trkpt lat="46.03755" lon="6.24202">
        <ele>783.13</ele>
        <time>2020-05-09T10:47:51Z</time>
      </trkpt>
      <trkpt lat="46.03739" lon="6.24177">
        <ele>781.69</ele>
        <time>2020-05-09T10:47:52Z</time>
      </trkpt>
      <trkpt lat="46.03723" lon="6.24153">
        <ele>779.77</ele>
        <time>2020-05-09T10:47:53Z</time>
      </trkpt>
      <trkpt lat="46.03706" lon="6.24129">
        <ele>778.32</ele>
        <time>2020-05-09T10:47:54Z</time>
      </trkpt>
      <trkpt lat="46.03688" lon="6.2411">
        <ele>776.88</ele>
        <time>2020-05-09T10:47:55Z</time>
      </trkpt>
      <trkpt lat="46.03669" lon="6.24092">
        <ele>774.96</ele>
        <time>2020-05-09T10:47:56Z</time>
      </trkpt>
      <trkpt lat="46.03649" lon="6.2408">
        <ele>773.52</ele>
        <time>2020-05-09T10:47:57Z</time>
      </trkpt>
      <trkpt lat="46.03628" lon="6.24074">
        <ele>772.08</ele>
        <time>2020-05-09T10:47:58Z</time>
      </trkpt>
      <trkpt lat="46.03607" lon="6.24072">
        <ele>770.63</ele>
        <time>2020-05-09T10:47:59Z</time>
      </trkpt>
      <trkpt lat="46.03586" lon="6.24073">
        <ele>769.19</ele>
        <time>2020-05-09T10:48:00Z</time>
      </trkpt>
      <trkpt lat="46.03566" lon="6.2408">
        <ele>767.75</ele>
        <time>2020-05-09T10:48:01Z</time>
      </trkpt>
      <trkpt lat="46.03547" lon="6.2409">
        <ele>766.31</ele>
        <time>2020-05-09T10:48:02Z</time>
      </trkpt>
      <trkpt lat="46.03529" lon="6.24105">
        <ele>764.87</ele>
        <time>2020-05-09T10:48:03Z</time>
      </trkpt>
      <trkpt lat="46.03516" lon="6.24126">
        <ele>763.42</ele>
        <time>2020-05-09T10:48:04Z</time>
      </trkpt>
      <trkpt lat="46.03503" lon="6.24148">
        <ele>762.46</ele>
        <time>2020-05-09T10:48:05Z</time>
      </trkpt>
      <trkpt lat="46.0349" lon="6.24171">
        <ele>761.02</ele>
        <time>2020-05-09T10:48:06Z</time>
      </trkpt>
      <trkpt lat="46.03463" lon="6.24212">
        <ele>759.1</ele>
        <time>2020-05-09T10:48:08Z</time>
      </trkpt>
      <trkpt lat="46.03451" lon="6.24231">
        <ele>758.14</ele>
        <time>2020-05-09T10:48:09Z</time>
      </trkpt>
      <trkpt lat="46.03435" lon="6.24244">
        <ele>756.69</ele>
        <time>2020-05-09T10:48:10Z</time>
      </trkpt>
      <trkpt lat="46.03418" lon="6.24254">
        <ele>755.73</ele>
        <time>2020-05-09T10:48:11Z</time>
      </trkpt>
      <trkpt lat="46.03399" lon="6.2426">
        <ele>753.81</ele>
        <time>2020-05-09T10:48:12Z</time>
      </trkpt>
      <trkpt lat="46.03381" lon="6.24262">
        <ele>752.85</ele>
        <time>2020-05-09T10:48:13Z</time>
      </trkpt>
      <trkpt lat="46.03362" lon="6.24258">
        <ele>751.89</ele>
        <time>2020-05-09T10:48:14Z</time>
      </trkpt>
      <trkpt lat="46.03345" lon="6.24249">
        <ele>750.93</ele>
        <time>2020-05-09T10:48:15Z</time>
      </trkpt>
      <trkpt lat="46.03328" lon="6.24235">
        <ele>749.97</ele>
        <time>2020-05-09T10:48:16Z</time>
      </trkpt>
      <trkpt lat="46.0331" lon="6.2422">
        <ele>749</ele>
        <time>2020-05-09T10:48:17Z</time>
      </trkpt>
      <trkpt lat="46.03291" lon="6.24199">
        <ele>748.52</ele>
        <time>2020-05-09T10:48:18Z</time>
      </trkpt>
      <trkpt lat="46.03274" lon="6.24173">
        <ele>748.04</ele>
        <time>2020-05-09T10:48:19Z</time>
      </trkpt>
      <trkpt lat="46.03256" lon="6.24144">
        <ele>747.08</ele>
        <time>2020-05-09T10:48:20Z</time>
      </trkpt>
      <trkpt lat="46.03156" lon="6.24022">
        <ele>744.2</ele>
        <time>2020-05-09T10:48:24Z</time>
      </trkpt>
      <trkpt lat="46.03035" lon="6.23888">
        <ele>740.83</ele>
        <time>2020-05-09T10:48:29Z</time>
      </trkpt>
      <trkpt lat="46.03009" lon="6.23874">
        <ele>740.83</ele>
        <time>2020-05-09T10:48:30Z</time>
      </trkpt>
      <trkpt lat="46.02846" lon="6.23796">
        <ele>737.95</ele>
        <time>2020-05-09T10:48:36Z</time>
      </trkpt>
      <trkpt lat="46.02612" lon="6.23752">
        <ele>729.3</ele>
        <time>2020-05-09T10:48:45Z</time>
      </trkpt>
      <trkpt lat="46.02588" lon="6.23742">
        <ele>728.34</ele>
        <time>2020-05-09T10:48:46Z</time>
      </trkpt>
      <trkpt lat="46.02564" lon="6.23731">
        <ele>726.89</ele>
        <time>2020-05-09T10:48:47Z</time>
      </trkpt>
      <trkpt lat="46.02542" lon="6.23714">
        <ele>725.93</ele>
        <time>2020-05-09T10:48:48Z</time>
      </trkpt>
      <trkpt lat="46.02522" lon="6.23693">
        <ele>724.49</ele>
        <time>2020-05-09T10:48:49Z</time>
      </trkpt>
      <trkpt lat="46.02504" lon="6.23669">
        <ele>723.05</ele>
        <time>2020-05-09T10:48:50Z</time>
      </trkpt>
      <trkpt lat="46.02487" lon="6.23641">
        <ele>722.09</ele>
        <time>2020-05-09T10:48:51Z</time>
      </trkpt>
      <trkpt lat="46.02469" lon="6.23612">
        <ele>721.13</ele>
        <time>2020-05-09T10:48:52Z</time>
      </trkpt>
      <trkpt lat="46.02456" lon="6.23583">
        <ele>720.16</ele>
        <time>2020-05-09T10:48:53Z</time>
      </trkpt>
      <trkpt lat="46.02443" lon="6.23554">
        <ele>719.2</ele>
        <time>2020-05-09T10:48:54Z</time>
      </trkpt>
      <trkpt lat="46.02416" lon="6.235">
        <ele>716.8</ele>
        <time>2020-05-09T10:48:56Z</time>
      </trkpt>
      <trkpt lat="46.024" lon="6.23476">
        <ele>716.32</ele>
        <time>2020-05-09T10:48:57Z</time>
      </trkpt>
      <trkpt lat="46.0238" lon="6.23459">
        <ele>715.36</ele>
        <time>2020-05-09T10:48:58Z</time>
      </trkpt>
      <trkpt lat="46.02362" lon="6.23442">
        <ele>714.4</ele>
        <time>2020-05-09T10:48:59Z</time>
      </trkpt>
      <trkpt lat="46.02343" lon="6.23425">
        <ele>713.44</ele>
        <time>2020-05-09T10:49:00Z</time>
      </trkpt>
      <trkpt lat="46.02291" lon="6.23378">
        <ele>709.11</ele>
        <time>2020-05-09T10:49:03Z</time>
      </trkpt>
      <trkpt lat="46.02278" lon="6.23357">
        <ele>707.19</ele>
        <time>2020-05-09T10:49:04Z</time>
      </trkpt>
      <trkpt lat="46.02266" lon="6.23336">
        <ele>705.75</ele>
        <time>2020-05-09T10:49:05Z</time>
      </trkpt>
      <trkpt lat="46.02256" lon="6.23314">
        <ele>704.78</ele>
        <time>2020-05-09T10:49:06Z</time>
      </trkpt>
      <trkpt lat="46.02245" lon="6.23292">
        <ele>703.82</ele>
        <time>2020-05-09T10:49:07Z</time>
      </trkpt>
      <trkpt lat="46.02139" lon="6.2309">
        <ele>700.46</ele>
        <time>2020-05-09T10:49:17Z</time>
      </trkpt>
      <trkpt lat="46.02124" lon="6.23068">
        <ele>699.98</ele>
        <time>2020-05-09T10:49:18Z</time>
      </trkpt>
      <trkpt lat="46.02107" lon="6.23047">
        <ele>699.98</ele>
        <time>2020-05-09T10:49:19Z</time>
      </trkpt>
      <trkpt lat="46.02088" lon="6.23024">
        <ele>699.5</ele>
        <time>2020-05-09T10:49:20Z</time>
      </trkpt>
      <trkpt lat="46.02072" lon="6.22996">
        <ele>699.02</ele>
        <time>2020-05-09T10:49:21Z</time>
      </trkpt>
      <trkpt lat="46.02059" lon="6.22964">
        <ele>698.53</ele>
        <time>2020-05-09T10:49:22Z</time>
      </trkpt>
      <trkpt lat="46.02047" lon="6.22928">
        <ele>698.53</ele>
        <time>2020-05-09T10:49:23Z</time>
      </trkpt>
      <trkpt lat="46.02039" lon="6.2289">
        <ele>698.05</ele>
        <time>2020-05-09T10:49:24Z</time>
      </trkpt>
      <trkpt lat="46.02033" lon="6.22849">
        <ele>697.57</ele>
        <time>2020-05-09T10:49:25Z</time>
      </trkpt>
      <trkpt lat="46.02026" lon="6.22807">
        <ele>697.09</ele>
        <time>2020-05-09T10:49:26Z</time>
      </trkpt>
      <trkpt lat="46.01965" lon="6.2239">
        <ele>690.84</ele>
        <time>2020-05-09T10:49:36Z</time>
      </trkpt>
      <trkpt lat="46.01884" lon="6.21975">
        <ele>683.15</ele>
        <time>2020-05-09T10:49:47Z</time>
      </trkpt>
      <trkpt lat="46.0179" lon="6.21725">
        <ele>679.79</ele>
        <time>2020-05-09T10:49:55Z</time>
      </trkpt>
      <trkpt lat="46.01706" lon="6.2153">
        <ele>677.87</ele>
        <time>2020-05-09T10:50:02Z</time>
      </trkpt>
      <trkpt lat="46.01691" lon="6.21505">
        <ele>677.87</ele>
        <time>2020-05-09T10:50:03Z</time>
      </trkpt>
      <trkpt lat="46.01674" lon="6.21482">
        <ele>677.39</ele>
        <time>2020-05-09T10:50:04Z</time>
      </trkpt>
      <trkpt lat="46.01656" lon="6.21461">
        <ele>677.39</ele>
        <time>2020-05-09T10:50:05Z</time>
      </trkpt>
      <trkpt lat="46.01637" lon="6.21442">
        <ele>677.39</ele>
        <time>2020-05-09T10:50:06Z</time>
      </trkpt>
      <trkpt lat="46.0142" lon="6.21221">
        <ele>672.1</ele>
        <time>2020-05-09T10:50:18Z</time>
      </trkpt>
      <trkpt lat="46.01392" lon="6.21173">
        <ele>670.18</ele>
        <time>2020-05-09T10:50:20Z</time>
      </trkpt>
      <trkpt lat="46.01267" lon="6.20999">
        <ele>664.41</ele>
        <time>2020-05-09T10:50:28Z</time>
      </trkpt>
      <trkpt lat="46.01083" lon="6.20777">
        <ele>660.08</ele>
        <time>2020-05-09T10:50:39Z</time>
      </trkpt>
      <trkpt lat="46.00942" lon="6.2061">
        <ele>656.72</ele>
        <time>2020-05-09T10:50:48Z</time>
      </trkpt>
      <trkpt lat="46.00868" lon="6.20493">
        <ele>655.76</ele>
        <time>2020-05-09T10:50:54Z</time>
      </trkpt>
      <trkpt lat="46.00859" lon="6.20469">
        <ele>655.28</ele>
        <time>2020-05-09T10:50:55Z</time>
      </trkpt>
      <trkpt lat="46.00852" lon="6.20442">
        <ele>654.8</ele>
        <time>2020-05-09T10:50:56Z</time>
      </trkpt>
      <trkpt lat="46.00767" lon="6.20126">
        <ele>649.51</ele>
        <time>2020-05-09T10:51:07Z</time>
      </trkpt>
      <trkpt lat="46.00687" lon="6.19768">
        <ele>637.49</ele>
        <time>2020-05-09T10:51:19Z</time>
      </trkpt>
      <trkpt lat="46.00611" lon="6.19571">
        <ele>629.8</ele>
        <time>2020-05-09T10:51:27Z</time>
      </trkpt>
      <trkpt lat="46.006" lon="6.1955">
        <ele>629.32</ele>
        <time>2020-05-09T10:51:28Z</time>
      </trkpt>
      <trkpt lat="46.00587" lon="6.19533">
        <ele>628.36</ele>
        <time>2020-05-09T10:51:29Z</time>
      </trkpt>
      <trkpt lat="46.00573" lon="6.19516">
        <ele>627.88</ele>
        <time>2020-05-09T10:51:30Z</time>
      </trkpt>
      <trkpt lat="46.00558" lon="6.19502">
        <ele>626.92</ele>
        <time>2020-05-09T10:51:31Z</time>
      </trkpt>
      <trkpt lat="46.00515" lon="6.19456">
        <ele>624.51</ele>
        <time>2020-05-09T10:51:34Z</time>
      </trkpt>
      <trkpt lat="46.00504" lon="6.19437">
        <ele>623.55</ele>
        <time>2020-05-09T10:51:35Z</time>
      </trkpt>
      <trkpt lat="46.00486" lon="6.19399">
        <ele>621.63</ele>
        <time>2020-05-09T10:51:37Z</time>
      </trkpt>
      <trkpt lat="46.0048" lon="6.1938">
        <ele>620.67</ele>
        <time>2020-05-09T10:51:38Z</time>
      </trkpt>
      <trkpt lat="46.0048" lon="6.19361">
        <ele>619.23</ele>
        <time>2020-05-09T10:51:39Z</time>
      </trkpt>
      <trkpt lat="46.00485" lon="6.19345">
        <ele>618.75</ele>
        <time>2020-05-09T10:51:40Z</time>
      </trkpt>
      <trkpt lat="46.00492" lon="6.1933">
        <ele>617.78</ele>
        <time>2020-05-09T10:51:41Z</time>
      </trkpt>
      <trkpt lat="46.00502" lon="6.19317">
        <ele>616.82</ele>
        <time>2020-05-09T10:51:42Z</time>
      </trkpt>
      <trkpt lat="46.00514" lon="6.1931">
        <ele>615.86</ele>
        <time>2020-05-09T10:51:43Z</time>
      </trkpt>
      <trkpt lat="46.00528" lon="6.19308">
        <ele>614.9</ele>
        <time>2020-05-09T10:51:44Z</time>
      </trkpt>
      <trkpt lat="46.00542" lon="6.19315">
        <ele>613.94</ele>
        <time>2020-05-09T10:51:45Z</time>
      </trkpt>
      <trkpt lat="46.00555" lon="6.19325">
        <ele>612.5</ele>
        <time>2020-05-09T10:51:46Z</time>
      </trkpt>
      <trkpt lat="46.00567" lon="6.19339">
        <ele>611.54</ele>
        <time>2020-05-09T10:51:47Z</time>
      </trkpt>
      <trkpt lat="46.00579" lon="6.19355">
        <ele>610.57</ele>
        <time>2020-05-09T10:51:48Z</time>
      </trkpt>
      <trkpt lat="46.0059" lon="6.19373">
        <ele>609.13</ele>
        <time>2020-05-09T10:51:49Z</time>
      </trkpt>
      <trkpt lat="46.00599" lon="6.19391">
        <ele>608.17</ele>
        <time>2020-05-09T10:51:50Z</time>
      </trkpt>
      <trkpt lat="46.00658" lon="6.19515">
        <ele>603.36</ele>
        <time>2020-05-09T10:51:57Z</time>
      </trkpt>
      <trkpt lat="46.00664" lon="6.19529">
        <ele>602.88</ele>
        <time>2020-05-09T10:51:58Z</time>
      </trkpt>
      <trkpt lat="46.00672" lon="6.19537">
        <ele>602.4</ele>
        <time>2020-05-09T10:51:59Z</time>
      </trkpt>
      <trkpt lat="46.00682" lon="6.19541">
        <ele>601.92</ele>
        <time>2020-05-09T10:52:00Z</time>
      </trkpt>
      <trkpt lat="46.00687" lon="6.19539">
        <ele>601.44</ele>
        <time>2020-05-09T10:52:01Z</time>
      </trkpt>
      <trkpt lat="46.00692" lon="6.1953">
        <ele>600.96</ele>
        <time>2020-05-09T10:52:02Z</time>
      </trkpt>
      <trkpt lat="46.00693" lon="6.19517">
        <ele>600.48</ele>
        <time>2020-05-09T10:52:03Z</time>
      </trkpt>
      <trkpt lat="46.00695" lon="6.19505">
        <ele>599.52</ele>
        <time>2020-05-09T10:52:04Z</time>
      </trkpt>
      <trkpt lat="46.00688" lon="6.19487">
        <ele>598.56</ele>
        <time>2020-05-09T10:52:05Z</time>
      </trkpt>
      <trkpt lat="46.00679" lon="6.19465">
        <ele>598.08</ele>
        <time>2020-05-09T10:52:06Z</time>
      </trkpt>
      <trkpt lat="46.00667" lon="6.19436">
        <ele>597.12</ele>
        <time>2020-05-09T10:52:07Z</time>
      </trkpt>
      <trkpt lat="46.00606" lon="6.19261">
        <ele>591.83</ele>
        <time>2020-05-09T10:52:11Z</time>
      </trkpt>
      <trkpt lat="46.00523" lon="6.19049">
        <ele>580.29</ele>
        <time>2020-05-09T10:52:16Z</time>
      </trkpt>
      <trkpt lat="46.00454" lon="6.18934">
        <ele>572.6</ele>
        <time>2020-05-09T10:52:20Z</time>
      </trkpt>
      <trkpt lat="46.00439" lon="6.18914">
        <ele>571.16</ele>
        <time>2020-05-09T10:52:21Z</time>
      </trkpt>
      <trkpt lat="46.00408" lon="6.18867">
        <ele>567.32</ele>
        <time>2020-05-09T10:52:24Z</time>
      </trkpt>
      <trkpt lat="46.00403" lon="6.18854">
        <ele>565.87</ele>
        <time>2020-05-09T10:52:25Z</time>
      </trkpt>
      <trkpt lat="46.00402" lon="6.18843">
        <ele>564.91</ele>
        <time>2020-05-09T10:52:26Z</time>
      </trkpt>
      <trkpt lat="46.00405" lon="6.18831">
        <ele>564.43</ele>
        <time>2020-05-09T10:52:27Z</time>
      </trkpt>
      <trkpt lat="46.00412" lon="6.18825">
        <ele>563.95</ele>
        <time>2020-05-09T10:52:28Z</time>
      </trkpt>
      <trkpt lat="46.00421" lon="6.1882">
        <ele>562.99</ele>
        <time>2020-05-09T10:52:29Z</time>
      </trkpt>
      <trkpt lat="46.00431" lon="6.18822">
        <ele>562.03</ele>
        <time>2020-05-09T10:52:30Z</time>
      </trkpt>
      <trkpt lat="46.0044" lon="6.18834">
        <ele>561.55</ele>
        <time>2020-05-09T10:52:31Z</time>
      </trkpt>
      <trkpt lat="46.00445" lon="6.18848">
        <ele>561.07</ele>
        <time>2020-05-09T10:52:32Z</time>
      </trkpt>
      <trkpt lat="46.00449" lon="6.1886">
        <ele>561.07</ele>
        <time>2020-05-09T10:52:33Z</time>
      </trkpt>
      <trkpt lat="46.00447" lon="6.18889">
        <ele>561.07</ele>
        <time>2020-05-09T10:52:35Z</time>
      </trkpt>
      <trkpt lat="46.00429" lon="6.18911">
        <ele>561.07</ele>
        <time>2020-05-09T10:52:36Z</time>
      </trkpt>
      <trkpt lat="46.00407" lon="6.18945">
        <ele>561.55</ele>
        <time>2020-05-09T10:52:38Z</time>
      </trkpt>
      <trkpt lat="46.00399" lon="6.18963">
        <ele>562.03</ele>
        <time>2020-05-09T10:52:39Z</time>
      </trkpt>
      <trkpt lat="46.00394" lon="6.18988">
        <ele>562.99</ele>
        <time>2020-05-09T10:52:40Z</time>
      </trkpt>
      <trkpt lat="46.00363" lon="6.1913">
        <ele>567.32</ele>
        <time>2020-05-09T10:52:44Z</time>
      </trkpt>
      <trkpt lat="46.00312" lon="6.19389">
        <ele>571.64</ele>
        <time>2020-05-09T10:52:50Z</time>
      </trkpt>
      <trkpt lat="46.00292" lon="6.19497">
        <ele>571.64</ele>
        <time>2020-05-09T10:52:53Z</time>
      </trkpt>
      <trkpt lat="46.0029" lon="6.19533">
        <ele>572.12</ele>
        <time>2020-05-09T10:52:54Z</time>
      </trkpt>
      <trkpt lat="46.00289" lon="6.19569">
        <ele>572.12</ele>
        <time>2020-05-09T10:52:55Z</time>
      </trkpt>
      <trkpt lat="46.0028" lon="6.19774">
        <ele>572.12</ele>
        <time>2020-05-09T10:53:01Z</time>
      </trkpt>
      <trkpt lat="46.00274" lon="6.19806">
        <ele>572.12</ele>
        <time>2020-05-09T10:53:02Z</time>
      </trkpt>
      <trkpt lat="46.00263" lon="6.19836">
        <ele>572.6</ele>
        <time>2020-05-09T10:53:03Z</time>
      </trkpt>
      <trkpt lat="46.00208" lon="6.19984">
        <ele>574.04</ele>
        <time>2020-05-09T10:53:09Z</time>
      </trkpt>
      <trkpt lat="46.00193" lon="6.20024">
        <ele>573.56</ele>
        <time>2020-05-09T10:53:13Z</time>
      </trkpt>
      <trkpt lat="46.00192" lon="6.20026">
        <ele>573.56</ele>
        <time>2020-05-09T10:53:14Z</time>
      </trkpt>
      <trkpt lat="46.00179" lon="6.20006">
        <ele>572.12</ele>
        <time>2020-05-09T10:53:20Z</time>
      </trkpt>
      <trkpt lat="46.00178" lon="6.19999">
        <ele>570.68</ele>
        <time>2020-05-09T10:53:32Z</time>
      </trkpt>
      <trkpt lat="46.00178" lon="6.19999">
        <ele>570.2</ele>
        <time>2020-05-09T10:53:43Z</time>
      </trkpt>
      <trkpt lat="46.00178" lon="6.19999">
        <ele>570.2</ele>
        <time>2020-05-09T10:54:17Z</time>
      </trkpt>
    </trkseg>
  </trk>
</gpx>